Darstellungsparameter: Aktuell verwendete Einstellungen:
Skalierung der Graphiken ... ?
xyx+y,   Skalierungsfaktor:      Skalierung: Modus: x, Faktor: 1
Darstellungszeitraum ... ?
Vom - - bis: - -   Zeitraum: 20.03.2019 - 25.03.2019
Min/Max/Avg-Anzeige ... ?
Zeige MMA aktuell
Zeige MMA Monat
Zeige MMA alles
Zeige --A aktuell
Zeige --A Monat
Zeige --A alles
Keine MMA-Anzeige
MMA:
Average (ber die Originaldaten)
MMA-Basis: 20.03.2019 - 25.03.2019
Quicknavigation für Darstellung... ?
Tage:      1T, 2T, 3T, 5T -1T -2T -3T -5T +1T +2T +3T +5T
Wochen: 1W, 2W, 3W -1W -2W -3W +1W +2W +3W
Monate: 1M, 3M, 6M -1M -3M -6M +1M +3M +6M
Jahre:    1J, 3J, 5J, 10J -1J -3J -5J -10J +1J +3J +5J +10J
Nutze für die Darstellung ... ?
Originaldaten oder Mittelwerte auf ...
Stundenbasis Tagesbasis Wochenbasis
Monatsbasis Jahresbasis      Datenbasis: Original-Daten
Darstellen als:
Statistik (Auto) Statistik J:M      Darstellung:
Zur Graphik,    zurück zur Übersicht aller Sensoren.
 
Tabellarische Datenbersicht: ?
 
Sensor: Nr:Datum:Temp:Abs-Feuchte:Windchill:Wind:
Aussen-T/F 1 20-03-2019 00:00:00 1.2 C 4.63 g/m*3 1.2 C 0 km/h
2 20-03-2019 00:05:00 1.2 C 4.68 g/m*3 1.2 C 0 km/h
3 20-03-2019 00:10:00 1.2 C 4.68 g/m*3 1.2 C 0 km/h
4 20-03-2019 00:15:00 1.1 C 4.65 g/m*3 1.1 C 0 km/h
5 20-03-2019 00:20:00 0.9 C 4.54 g/m*3 0.9 C 0 km/h
6 20-03-2019 00:25:00 0.8 C 4.56 g/m*3 0.8 C 0 km/h
7 20-03-2019 00:30:00 0.7 C 4.53 g/m*3 0.7 C 0 km/h
8 20-03-2019 00:35:00 0.6 C 4.49 g/m*3 0.6 C 0 km/h
9 20-03-2019 00:40:00 0.6 C 4.54 g/m*3 0.6 C 0 km/h
10 20-03-2019 00:45:00 0.5 C 4.51 g/m*3 0.5 C 0 km/h
11 20-03-2019 00:50:00 0.4 C 4.48 g/m*3 0.4 C 0 km/h
12 20-03-2019 00:55:00 0.4 C 4.48 g/m*3 0.4 C 0 km/h
13 20-03-2019 01:00:00 0.4 C 4.48 g/m*3 0.4 C 0 km/h
14 20-03-2019 01:05:00 0.4 C 4.53 g/m*3 0.4 C 0 km/h
15 20-03-2019 01:10:00 0.5 C 4.56 g/m*3 0.5 C 0 km/h
16 20-03-2019 01:15:00 0.5 C 4.56 g/m*3 0.5 C 0 km/h
17 20-03-2019 01:20:00 0.4 C 4.53 g/m*3 0.4 C 0 km/h
18 20-03-2019 01:25:00 0.4 C 4.53 g/m*3 0.4 C 0 km/h
19 20-03-2019 01:30:00 0.4 C 4.53 g/m*3 0.4 C 0 km/h
20 20-03-2019 01:35:00 0.4 C 4.53 g/m*3 0.4 C 0 km/h
21 20-03-2019 01:40:00 0.3 C 4.5 g/m*3 0.3 C 0 km/h
22 20-03-2019 01:45:00 0.3 C 4.5 g/m*3 0.3 C 0 km/h
23 20-03-2019 01:50:00 0.2 C 4.47 g/m*3 0.2 C 0 km/h
24 20-03-2019 01:55:00 0.1 C 4.39 g/m*3 0.1 C 0 km/h
25 20-03-2019 02:00:00 -0.1 C 4.38 g/m*3 -0.1 C 0 km/h
Sensor: Nr:Datum:Temp:Abs-Feuchte:Windchill:Wind:
Aussen-T/F 26 20-03-2019 02:05:00 -0.1 C 4.38 g/m*3 -0.1 C 0 km/h
27 20-03-2019 02:10:00 -0.1 C 4.38 g/m*3 -0.1 C 0 km/h
28 20-03-2019 02:15:00 0 C 4.46 g/m*3 0 C 0 km/h
29 20-03-2019 02:20:00 -0.1 C 4.38 g/m*3 -0.1 C 0 km/h
30 20-03-2019 02:25:00 -0.2 C 4.35 g/m*3 -0.2 C 0 km/h
31 20-03-2019 02:30:00 -0.2 C 4.35 g/m*3 -0.2 C 0 km/h
32 20-03-2019 02:35:00 -0.3 C 4.32 g/m*3 -0.3 C 0 km/h
33 20-03-2019 02:40:00 -0.3 C 4.37 g/m*3 -0.3 C 0 km/h
34 20-03-2019 02:45:00 -0.2 C 4.4 g/m*3 -0.2 C 0 km/h
35 20-03-2019 02:50:00 -0.2 C 4.4 g/m*3 -0.2 C 0 km/h
36 20-03-2019 02:55:00 -0.2 C 4.4 g/m*3 -0.2 C 0 km/h
37 20-03-2019 03:00:00 -0.3 C 4.37 g/m*3 -0.3 C 0 km/h
38 20-03-2019 03:05:00 -0.4 C 4.34 g/m*3 -0.4 C 0 km/h
39 20-03-2019 03:10:00 -0.4 C 4.34 g/m*3 -0.4 C 0 km/h
40 20-03-2019 03:15:00 -0.4 C 4.34 g/m*3 -0.4 C 0 km/h
41 20-03-2019 03:20:00 -0.4 C 4.34 g/m*3 -0.4 C 0 km/h
42 20-03-2019 03:25:00 -0.5 C 4.31 g/m*3 -0.5 C 0 km/h
43 20-03-2019 03:30:00 -0.6 C 4.28 g/m*3 -0.6 C 0 km/h
44 20-03-2019 03:35:00 -0.7 C 4.25 g/m*3 -0.7 C 0 km/h
45 20-03-2019 03:40:00 -0.7 C 4.25 g/m*3 -0.7 C 0 km/h
46 20-03-2019 03:45:00 -0.7 C 4.25 g/m*3 -0.7 C 0 km/h
47 20-03-2019 03:50:00 -0.7 C 4.25 g/m*3 -0.7 C 0 km/h
48 20-03-2019 03:55:00 -0.8 C 4.22 g/m*3 -0.8 C 0 km/h
49 20-03-2019 04:00:00 -0.8 C 4.22 g/m*3 -0.8 C 0 km/h
50 20-03-2019 04:05:00 -0.8 C 4.22 g/m*3 -0.8 C 0 km/h
Sensor: Nr:Datum:Temp:Abs-Feuchte:Windchill:Wind:
Aussen-T/F 51 20-03-2019 04:10:00 -0.9 C 4.19 g/m*3 -0.9 C 0 km/h
52 20-03-2019 04:15:00 -0.9 C 4.23 g/m*3 -0.9 C 0 km/h
53 20-03-2019 04:20:00 -0.9 C 4.23 g/m*3 -0.9 C 0 km/h
54 20-03-2019 04:25:00 -0.9 C 4.23 g/m*3 -0.9 C 0 km/h
55 20-03-2019 04:30:00 -1 C 4.2 g/m*3 -1 C 0 km/h
56 20-03-2019 04:35:00 -1 C 4.2 g/m*3 -1 C 0 km/h
57 20-03-2019 04:40:00 -1 C 4.2 g/m*3 -1 C 0 km/h
58 20-03-2019 04:45:00 -0.9 C 4.23 g/m*3 -0.9 C 0 km/h
59 20-03-2019 04:50:00 -0.9 C 4.23 g/m*3 -0.9 C 0 km/h
60 20-03-2019 04:55:00 -0.9 C 4.23 g/m*3 -0.9 C 0 km/h
61 20-03-2019 05:00:00 -0.9 C 4.23 g/m*3 -0.9 C 0 km/h
62 20-03-2019 05:05:00 -1 C 4.2 g/m*3 -1 C 0 km/h
63 20-03-2019 05:10:00 -1 C 4.2 g/m*3 -1 C 0 km/h
64 20-03-2019 05:15:00 -1.1 C 4.17 g/m*3 -1.1 C 0 km/h
65 20-03-2019 05:20:00 -1.1 C 4.17 g/m*3 -1.1 C 0 km/h
66 20-03-2019 05:25:00 -1.2 C 4.15 g/m*3 -1.2 C 0 km/h
67 20-03-2019 05:30:00 -1.2 C 4.15 g/m*3 -1.2 C 0 km/h
68 20-03-2019 05:35:00 -1.2 C 4.15 g/m*3 -1.2 C 0 km/h
69 20-03-2019 05:40:00 -1.1 C 4.22 g/m*3 -1.1 C 0 km/h
70 20-03-2019 05:45:00 -1.1 C 4.17 g/m*3 -1.1 C 0 km/h
71 20-03-2019 05:50:00 -1.2 C 4.15 g/m*3 -1.2 C 0 km/h
72 20-03-2019 05:55:00 -1.2 C 4.15 g/m*3 -1.2 C 0 km/h
73 20-03-2019 06:00:00 -1.3 C 4.12 g/m*3 -1.3 C 0 km/h
74 20-03-2019 06:05:00 -1.3 C 4.12 g/m*3 -1.3 C 0 km/h
75 20-03-2019 06:10:00 -1.3 C 4.12 g/m*3 -1.3 C 0 km/h
Sensor: Nr:Datum:Temp:Abs-Feuchte:Windchill:Wind:
Aussen-T/F 76 20-03-2019 06:15:00 -1.3 C 4.16 g/m*3 -1.3 C 0 km/h
77 20-03-2019 06:20:00 -1.2 C 4.19 g/m*3 -1.2 C 0 km/h
78 20-03-2019 06:25:00 -1.1 C 4.22 g/m*3 -1.1 C 0 km/h
79 20-03-2019 06:30:00 -1.1 C 4.22 g/m*3 -1.1 C 0 km/h
80 20-03-2019 06:35:00 -1.1 C 4.22 g/m*3 -1.1 C 0 km/h
81 20-03-2019 06:40:00 -1.2 C 4.19 g/m*3 -1.2 C 0 km/h
82 20-03-2019 06:45:00 -1.2 C 4.19 g/m*3 -1.2 C 0 km/h
83 20-03-2019 06:50:00 -1.3 C 4.16 g/m*3 -1.3 C 0 km/h
84 20-03-2019 06:55:00 -1.3 C 4.16 g/m*3 -1.3 C 0 km/h
85 20-03-2019 07:00:00 -1.2 C 4.19 g/m*3 -1.2 C 0 km/h
86 20-03-2019 07:05:00 -1.2 C 4.19 g/m*3 -1.2 C 0 km/h
87 20-03-2019 07:10:00 -1.2 C 4.19 g/m*3 -1.2 C 0 km/h
88 20-03-2019 07:15:00 -1.2 C 4.19 g/m*3 -1.2 C 0 km/h
89 20-03-2019 07:20:00 -1.1 C 4.22 g/m*3 -1.1 C 0 km/h
90 20-03-2019 07:25:00 -1.1 C 4.22 g/m*3 -1.1 C 0 km/h
91 20-03-2019 07:30:00 -1.1 C 4.22 g/m*3 -1.1 C 0 km/h
92 20-03-2019 07:35:00 -1 C 4.25 g/m*3 -1 C 0 km/h
93 20-03-2019 07:40:00 -1.1 C 4.22 g/m*3 -1.1 C 0 km/h
94 20-03-2019 07:45:00 -1 C 4.25 g/m*3 -1 C 0 km/h
95 20-03-2019 07:50:00 -0.9 C 4.28 g/m*3 -0.9 C 0 km/h
96 20-03-2019 07:55:00 -0.9 C 4.28 g/m*3 -0.9 C 0 km/h
97 20-03-2019 08:00:00 -0.9 C 4.28 g/m*3 -0.9 C 0 km/h
98 20-03-2019 08:05:00 -0.9 C 4.28 g/m*3 -0.9 C 0 km/h
99 20-03-2019 08:10:00 -0.9 C 4.28 g/m*3 -0.9 C 0 km/h
100 20-03-2019 08:15:00 -0.9 C 4.28 g/m*3 -0.9 C 0 km/h
Sensor: Nr:Datum:Temp:Abs-Feuchte:Windchill:Wind:
Aussen-T/F 101 20-03-2019 08:20:00 -0.8 C 4.31 g/m*3 -0.8 C 0 km/h
102 20-03-2019 08:25:00 -0.8 C 4.31 g/m*3 -0.8 C 0 km/h
103 20-03-2019 08:30:00 -0.7 C 4.39 g/m*3 -0.7 C 0 km/h
104 20-03-2019 08:35:00 -0.6 C 4.42 g/m*3 -0.6 C 0 km/h
105 20-03-2019 08:40:00 -0.6 C 4.42 g/m*3 -0.6 C 0 km/h
106 20-03-2019 08:45:00 -0.4 C 4.48 g/m*3 -0.4 C 0 km/h
107 20-03-2019 08:50:00 -0.3 C 4.51 g/m*3 -0.3 C 0 km/h
108 20-03-2019 08:55:00 -0.3 C 4.51 g/m*3 -0.3 C 0 km/h
109 20-03-2019 09:00:00 -0.2 C 4.54 g/m*3 -0.2 C 0 km/h
110 20-03-2019 09:05:00 -0.1 C 4.57 g/m*3 -0.1 C 0 km/h
111 20-03-2019 09:10:00 0.1 C 4.63 g/m*3 0.1 C 0 km/h
112 20-03-2019 09:15:00 0.2 C 4.67 g/m*3 0.2 C 0 km/h
113 20-03-2019 09:20:00 0.3 C 4.7 g/m*3 0.3 C 0 km/h
114 20-03-2019 09:25:00 0.4 C 4.73 g/m*3 0.4 C 0 km/h
115 20-03-2019 09:30:00 0.6 C 4.8 g/m*3 0.6 C 0 km/h
116 20-03-2019 09:35:00 0.7 C 4.83 g/m*3 0.7 C 0 km/h
117 20-03-2019 09:40:00 0.8 C 4.86 g/m*3 0.8 C 0 km/h
118 20-03-2019 09:45:00 1.1 C 4.96 g/m*3 1.1 C 0 km/h
119 20-03-2019 09:50:00 1.3 C 5.03 g/m*3 1.3 C 0 km/h
120 20-03-2019 09:55:00 1.7 C 5.17 g/m*3 1.7 C 0 km/h
121 20-03-2019 10:00:00 2.1 C 5.31 g/m*3 2.1 C 0 km/h
122 20-03-2019 10:05:00 2.6 C 5.5 g/m*3 2.6 C 0 km/h
123 20-03-2019 10:10:00 3.1 C 5.63 g/m*3 3.1 C 0 km/h
124 20-03-2019 10:15:00 3.4 C 5.74 g/m*3 3.4 C 0 km/h
125 20-03-2019 10:20:00 3.8 C 5.83 g/m*3 3.8 C 0 km/h
Sensor: Nr:Datum:Temp:Abs-Feuchte:Windchill:Wind:
Aussen-T/F 126 20-03-2019 10:25:00 4.1 C 5.89 g/m*3 4.1 C 0 km/h
127 20-03-2019 10:30:00 4.3 C 5.84 g/m*3 4.3 C 0 km/h
128 20-03-2019 10:35:00 4.7 C 5.93 g/m*3 4.7 C 0 km/h
129 20-03-2019 10:40:00 5.1 C 5.95 g/m*3 5.1 C 0 km/h
130 20-03-2019 10:45:00 5.6 C 6.08 g/m*3 5.6 C 0 km/h
131 20-03-2019 10:50:00 6 C 6.02 g/m*3 6 C 0 km/h
132 20-03-2019 10:55:00 6.4 C 6.04 g/m*3 6.4 C 0 km/h
133 20-03-2019 11:00:00 6.8 C 5.97 g/m*3 6.8 C 0 km/h
134 20-03-2019 11:05:00 7.1 C 6.08 g/m*3 7.1 C 0 km/h
135 20-03-2019 11:10:00 7.4 C 6.12 g/m*3 7.4 C 0 km/h
136 20-03-2019 11:15:00 7.8 C 6.2 g/m*3 7.8 C 0 km/h
137 20-03-2019 11:20:00 8.2 C 6.11 g/m*3 8.2 C 0 km/h
138 20-03-2019 11:25:00 8.7 C 6.14 g/m*3 8.7 C 0 km/h
139 20-03-2019 11:30:00 9.2 C 6.16 g/m*3 9.2 C 0 km/h
140 20-03-2019 11:35:00 9.6 C 6.14 g/m*3 9.6 C 1.6 km/h
141 20-03-2019 11:40:00 10 C 6.01 g/m*3 10 C 0 km/h
142 20-03-2019 11:45:00 10.3 C 5.84 g/m*3 9.72 C 6.4 km/h
143 20-03-2019 11:50:00 10.6 C 5.76 g/m*3 10.06 C 6.4 km/h
144 20-03-2019 11:55:00 10.8 C 5.83 g/m*3 10.29 C 6.4 km/h
145 20-03-2019 12:00:00 11 C 5.91 g/m*3 11 C 4.8 km/h
146 20-03-2019 12:05:00 11.1 C 5.84 g/m*3 11.1 C 4.8 km/h
147 20-03-2019 12:10:00 11.2 C 5.88 g/m*3 11.2 C 6.4 km/h
148 20-03-2019 12:15:00 11.3 C 5.81 g/m*3 11.3 C 6.4 km/h
149 20-03-2019 12:20:00 11.4 C 5.95 g/m*3 11.4 C 4.8 km/h
150 20-03-2019 12:25:00 11.6 C 6.03 g/m*3 11.6 C 6.4 km/h
Sensor: Nr:Datum:Temp:Abs-Feuchte:Windchill:Wind:
Aussen-T/F 151 20-03-2019 12:30:00 11.8 C 5.89 g/m*3 11.8 C 8.1 km/h
152 20-03-2019 12:35:00 11.8 C 5.89 g/m*3 11.8 C 8.1 km/h
153 20-03-2019 12:40:00 12 C 5.97 g/m*3 12 C 9.7 km/h
154 20-03-2019 12:45:00 12.1 C 5.68 g/m*3 12.1 C 8.1 km/h
155 20-03-2019 12:50:00 12.1 C 5.79 g/m*3 12.1 C 3.2 km/h
156 20-03-2019 12:55:00 12.2 C 6.04 g/m*3 12.2 C 0 km/h
157 20-03-2019 13:00:00 12.3 C 5.86 g/m*3 12.3 C 6.4 km/h
158 20-03-2019 13:05:00 12.6 C 5.97 g/m*3 12.6 C 8.1 km/h
159 20-03-2019 13:10:00 12.8 C 6.16 g/m*3 12.8 C 6.4 km/h
160 20-03-2019 13:15:00 13 C 5.78 g/m*3 13 C 1.6 km/h
161 20-03-2019 13:20:00 13.2 C 5.63 g/m*3 13.2 C 8.1 km/h
162 20-03-2019 13:25:00 13.2 C 5.74 g/m*3 13.2 C 11.3 km/h
163 20-03-2019 13:30:00 13.2 C 5.28 g/m*3 13.2 C 4.8 km/h
164 20-03-2019 13:35:00 13.3 C 5.08 g/m*3 13.3 C 6.4 km/h
165 20-03-2019 13:40:00 13.4 C 5.35 g/m*3 13.4 C 8.1 km/h
166 20-03-2019 13:45:00 13.6 C 5.3 g/m*3 13.6 C 6.4 km/h
167 20-03-2019 13:50:00 13.6 C 5.06 g/m*3 13.6 C 4.8 km/h
168 20-03-2019 13:55:00 13.7 C 5.09 g/m*3 13.7 C 8.1 km/h
169 20-03-2019 14:00:00 13.8 C 5.12 g/m*3 13.8 C 6.4 km/h
170 20-03-2019 14:05:00 13.8 C 5.6 g/m*3 13.8 C 8.1 km/h
171 20-03-2019 14:10:00 13.8 C 5.72 g/m*3 13.8 C 4.8 km/h
172 20-03-2019 14:15:00 13.8 C 5.36 g/m*3 13.8 C 6.4 km/h
173 20-03-2019 14:20:00 13.8 C 5.6 g/m*3 13.8 C 8.1 km/h
174 20-03-2019 14:25:00 13.8 C 5.6 g/m*3 13.8 C 4.8 km/h
175 20-03-2019 14:30:00 13.8 C 5.48 g/m*3 13.8 C 6.4 km/h
Sensor: Nr:Datum:Temp:Abs-Feuchte:Windchill:Wind:
Aussen-T/F 176 20-03-2019 14:35:00 13.8 C 5.6 g/m*3 13.8 C 4.8 km/h
177 20-03-2019 14:40:00 13.8 C 5.48 g/m*3 13.8 C 6.4 km/h
178 20-03-2019 14:45:00 13.7 C 5.68 g/m*3 13.7 C 6.4 km/h
179 20-03-2019 14:50:00 13.6 C 5.41 g/m*3 13.6 C 11.3 km/h
180 20-03-2019 14:55:00 13.6 C 5.53 g/m*3 13.6 C 4.8 km/h
181 20-03-2019 15:00:00 13.5 C 5.61 g/m*3 13.5 C 6.4 km/h
182 20-03-2019 15:05:00 13.6 C 5.53 g/m*3 13.6 C 9.7 km/h
183 20-03-2019 15:10:00 13.6 C 5.65 g/m*3 13.6 C 8.1 km/h
184 20-03-2019 15:15:00 13.6 C 5.65 g/m*3 13.6 C 3.2 km/h
185 20-03-2019 15:20:00 13.6 C 5.53 g/m*3 13.6 C 1.6 km/h
186 20-03-2019 15:25:00 13.6 C 5.53 g/m*3 13.6 C 8.1 km/h
187 20-03-2019 15:30:00 13.6 C 5.65 g/m*3 13.6 C 11.3 km/h
188 20-03-2019 15:35:00 13.6 C 5.53 g/m*3 13.6 C 8.1 km/h
189 20-03-2019 15:40:00 13.7 C 5.68 g/m*3 13.7 C 8.1 km/h
190 20-03-2019 15:45:00 13.7 C 5.8 g/m*3 13.7 C 0 km/h
191 20-03-2019 15:50:00 13.8 C 5.6 g/m*3 13.8 C 6.4 km/h
192 20-03-2019 15:55:00 13.8 C 5.6 g/m*3 13.8 C 11.3 km/h
193 20-03-2019 16:00:00 13.8 C 5.72 g/m*3 13.8 C 8.1 km/h
194 20-03-2019 16:05:00 13.8 C 5.6 g/m*3 13.8 C 8.1 km/h
195 20-03-2019 16:10:00 13.9 C 5.75 g/m*3 13.9 C 8.1 km/h
196 20-03-2019 16:15:00 14 C 5.91 g/m*3 14 C 9.7 km/h
197 20-03-2019 16:20:00 14 C 5.79 g/m*3 14 C 11.3 km/h
198 20-03-2019 16:25:00 14.1 C 5.95 g/m*3 14.1 C 8.1 km/h
199 20-03-2019 16:30:00 14.1 C 5.95 g/m*3 14.1 C 9.7 km/h
200 20-03-2019 16:35:00 14.3 C 6.02 g/m*3 14.3 C 4.8 km/h
Sensor: Nr:Datum:Temp:Abs-Feuchte:Windchill:Wind:
Aussen-T/F 201 20-03-2019 16:40:00 14.4 C 5.93 g/m*3 14.4 C 8.1 km/h
202 20-03-2019 16:45:00 14.4 C 5.93 g/m*3 14.4 C 6.4 km/h
203 20-03-2019 16:50:00 14.3 C 5.77 g/m*3 14.3 C 11.3 km/h
204 20-03-2019 16:55:00 14.3 C 6.02 g/m*3 14.3 C 3.2 km/h
205 20-03-2019 17:00:00 14.6 C 6.13 g/m*3 14.6 C 0 km/h
206 20-03-2019 17:05:00 14.9 C 6.25 g/m*3 14.9 C 0 km/h
207 20-03-2019 17:10:00 15 C 5.9 g/m*3 15 C 4.8 km/h
208 20-03-2019 17:15:00 14.9 C 5.86 g/m*3 14.9 C 3.2 km/h
209 20-03-2019 17:20:00 14.8 C 5.83 g/m*3 14.8 C 4.8 km/h
210 20-03-2019 17:25:00 14.7 C 5.92 g/m*3 14.7 C 3.2 km/h
211 20-03-2019 17:30:00 14.7 C 5.92 g/m*3 14.7 C 0 km/h
212 20-03-2019 17:35:00 14.8 C 6.08 g/m*3 14.8 C 0 km/h
213 20-03-2019 17:40:00 14.8 C 6.84 g/m*3 14.8 C 3.2 km/h
214 20-03-2019 17:45:00 14.9 C 6.75 g/m*3 14.9 C 0 km/h
215 20-03-2019 17:50:00 15 C 6.92 g/m*3 15 C 0 km/h
216 20-03-2019 17:55:00 14.9 C 7.01 g/m*3 14.9 C 0 km/h
217 20-03-2019 18:00:00 14.7 C 7.05 g/m*3 14.7 C 0 km/h
218 20-03-2019 18:05:00 14.4 C 7.05 g/m*3 14.4 C 0 km/h
219 20-03-2019 18:10:00 13.7 C 6.87 g/m*3 13.7 C 0 km/h
220 20-03-2019 18:15:00 13.1 C 6.73 g/m*3 13.1 C 0 km/h
221 20-03-2019 18:20:00 12.6 C 6.75 g/m*3 12.6 C 0 km/h
222 20-03-2019 18:25:00 12.1 C 6.86 g/m*3 12.1 C 0 km/h
223 20-03-2019 18:30:00 11.5 C 6.71 g/m*3 11.5 C 0 km/h
224 20-03-2019 18:35:00 10.9 C 6.56 g/m*3 10.9 C 0 km/h
225 20-03-2019 18:40:00 10.4 C 6.46 g/m*3 10.4 C 0 km/h
Sensor: Nr:Datum:Temp:Abs-Feuchte:Windchill:Wind:
Aussen-T/F 226 20-03-2019 18:45:00 10.1 C 6.43 g/m*3 10.1 C 0 km/h
227 20-03-2019 18:50:00 9.7 C 6.36 g/m*3 9.7 C 0 km/h
228 20-03-2019 18:55:00 9.4 C 6.33 g/m*3 9.4 C 0 km/h
229 20-03-2019 19:00:00 9.3 C 6.38 g/m*3 9.3 C 0 km/h
230 20-03-2019 19:05:00 9.1 C 6.3 g/m*3 9.1 C 0 km/h
231 20-03-2019 19:10:00 9 C 6.35 g/m*3 9 C 0 km/h
232 20-03-2019 19:15:00 8.8 C 6.27 g/m*3 8.8 C 0 km/h
233 20-03-2019 19:20:00 8.6 C 6.27 g/m*3 8.6 C 0 km/h
234 20-03-2019 19:25:00 8.5 C 6.23 g/m*3 8.5 C 0 km/h
235 20-03-2019 19:30:00 8.4 C 6.19 g/m*3 8.4 C 0 km/h
236 20-03-2019 19:35:00 8.3 C 6.24 g/m*3 8.3 C 0 km/h
237 20-03-2019 19:40:00 8.2 C 6.28 g/m*3 8.2 C 0 km/h
238 20-03-2019 19:45:00 8.1 C 6.24 g/m*3 8.1 C 0 km/h
239 20-03-2019 19:50:00 7.9 C 6.16 g/m*3 7.9 C 0 km/h
240 20-03-2019 19:55:00 7.8 C 6.2 g/m*3 7.8 C 0 km/h
241 20-03-2019 20:00:00 7.7 C 6.24 g/m*3 7.7 C 0 km/h
242 20-03-2019 20:05:00 7.5 C 6.24 g/m*3 7.5 C 0 km/h
243 20-03-2019 20:10:00 7.3 C 6.16 g/m*3 7.3 C 0 km/h
244 20-03-2019 20:15:00 7.2 C 6.12 g/m*3 7.2 C 0 km/h
245 20-03-2019 20:20:00 7.1 C 6.08 g/m*3 7.1 C 0 km/h
246 20-03-2019 20:25:00 7 C 6.12 g/m*3 7 C 0 km/h
247 20-03-2019 20:30:00 6.8 C 6.04 g/m*3 6.8 C 0 km/h
248 20-03-2019 20:35:00 6.6 C 5.96 g/m*3 6.6 C 0 km/h
249 20-03-2019 20:40:00 6.4 C 5.96 g/m*3 6.4 C 0 km/h
250 20-03-2019 20:45:00 6.3 C 6 g/m*3 6.3 C 0 km/h
Sensor: Nr:Datum:Temp:Abs-Feuchte:Windchill:Wind:
Aussen-T/F 251 20-03-2019 20:50:00 6.2 C 6.03 g/m*3 6.2 C 0 km/h
252 20-03-2019 20:55:00 6.1 C 5.99 g/m*3 6.1 C 0 km/h
253 20-03-2019 21:00:00 6 C 5.95 g/m*3 6 C 0 km/h
254 20-03-2019 21:05:00 5.8 C 5.95 g/m*3 5.8 C 0 km/h
255 20-03-2019 21:10:00 5.7 C 5.98 g/m*3 5.7 C 0 km/h
256 20-03-2019 21:15:00 5.5 C 5.83 g/m*3 5.5 C 0 km/h
257 20-03-2019 21:20:00 5.4 C 5.79 g/m*3 5.4 C 0 km/h
258 20-03-2019 21:25:00 5.4 C 5.79 g/m*3 5.4 C 0 km/h
259 20-03-2019 21:30:00 5.4 C 5.79 g/m*3 5.4 C 0 km/h
260 20-03-2019 21:35:00 5.3 C 5.75 g/m*3 5.3 C 0 km/h
261 20-03-2019 21:40:00 5.3 C 5.82 g/m*3 5.3 C 0 km/h
262 20-03-2019 21:45:00 5.2 C 5.85 g/m*3 5.2 C 0 km/h
263 20-03-2019 21:50:00 5.1 C 5.81 g/m*3 5.1 C 0 km/h
264 20-03-2019 21:55:00 5.1 C 5.88 g/m*3 5.1 C 0 km/h
265 20-03-2019 22:00:00 5 C 5.78 g/m*3 5 C 0 km/h
266 20-03-2019 22:05:00 4.9 C 5.74 g/m*3 4.9 C 0 km/h
267 20-03-2019 22:10:00 4.8 C 5.7 g/m*3 4.8 C 0 km/h
268 20-03-2019 22:15:00 4.8 C 5.7 g/m*3 4.8 C 0 km/h
269 20-03-2019 22:20:00 4.8 C 5.77 g/m*3 4.8 C 0 km/h
270 20-03-2019 22:25:00 4.8 C 5.77 g/m*3 4.8 C 0 km/h
271 20-03-2019 22:30:00 4.8 C 5.77 g/m*3 4.8 C 0 km/h
272 20-03-2019 22:35:00 4.7 C 5.66 g/m*3 4.7 C 0 km/h
273 20-03-2019 22:40:00 4.6 C 5.69 g/m*3 4.6 C 0 km/h
274 20-03-2019 22:45:00 4.6 C 5.69 g/m*3 4.6 C 0 km/h
275 20-03-2019 22:50:00 4.6 C 5.69 g/m*3 4.6 C 0 km/h
Sensor: Nr:Datum:Temp:Abs-Feuchte:Windchill:Wind:
Aussen-T/F 276 20-03-2019 22:55:00 4.3 C 5.51 g/m*3 4.3 C 0 km/h
277 20-03-2019 23:00:00 4.2 C 5.54 g/m*3 4.2 C 0 km/h
278 20-03-2019 23:05:00 4.1 C 5.5 g/m*3 4.1 C 0 km/h
279 20-03-2019 23:10:00 3.9 C 5.49 g/m*3 3.9 C 0 km/h
280 20-03-2019 23:15:00 3.9 C 5.49 g/m*3 3.9 C 0 km/h
281 20-03-2019 23:20:00 3.8 C 5.46 g/m*3 3.8 C 0 km/h
282 20-03-2019 23:25:00 3.8 C 5.52 g/m*3 3.8 C 0 km/h
283 20-03-2019 23:30:00 3.8 C 5.52 g/m*3 3.8 C 0 km/h
284 20-03-2019 23:35:00 3.8 C 5.52 g/m*3 3.8 C 0 km/h
285 20-03-2019 23:40:00 3.7 C 5.48 g/m*3 3.7 C 0 km/h
286 20-03-2019 23:45:00 3.7 C 5.48 g/m*3 3.7 C 0 km/h
287 20-03-2019 23:50:00 3.6 C 5.45 g/m*3 3.6 C 0 km/h
288 20-03-2019 23:55:00 3.5 C 5.41 g/m*3 3.5 C 0 km/h
289 21-03-2019 00:00:00 3.4 C 5.37 g/m*3 3.4 C 0 km/h
290 21-03-2019 00:05:00 3.5 C 5.47 g/m*3 3.5 C 0 km/h
291 21-03-2019 00:10:00 3.5 C 5.47 g/m*3 3.5 C 0 km/h
292 21-03-2019 00:15:00 3.4 C 5.37 g/m*3 3.4 C 0 km/h
293 21-03-2019 00:20:00 3.3 C 5.34 g/m*3 3.3 C 0 km/h
294 21-03-2019 00:25:00 3.3 C 5.34 g/m*3 3.3 C 0 km/h
295 21-03-2019 00:30:00 3.3 C 5.4 g/m*3 3.3 C 0 km/h
296 21-03-2019 00:35:00 3.3 C 5.4 g/m*3 3.3 C 0 km/h
297 21-03-2019 00:40:00 3.2 C 5.36 g/m*3 3.2 C 0 km/h
298 21-03-2019 00:45:00 3.2 C 5.36 g/m*3 3.2 C 1.6 km/h
299 21-03-2019 00:50:00 3.2 C 5.36 g/m*3 3.2 C 0 km/h
300 21-03-2019 00:55:00 3.2 C 5.36 g/m*3 3.2 C 0 km/h
Sensor: Nr:Datum:Temp:Abs-Feuchte:Windchill:Wind:
Aussen-T/F 301 21-03-2019 01:00:00 3.1 C 5.27 g/m*3 3.1 C 0 km/h
302 21-03-2019 01:05:00 2.9 C 5.2 g/m*3 2.9 C 0 km/h
303 21-03-2019 01:10:00 2.8 C 5.22 g/m*3 2.8 C 0 km/h
304 21-03-2019 01:15:00 2.7 C 5.13 g/m*3 2.7 C 0 km/h
305 21-03-2019 01:20:00 2.6 C 5.15 g/m*3 2.6 C 0 km/h
306 21-03-2019 01:25:00 2.6 C 5.15 g/m*3 2.6 C 0 km/h
307 21-03-2019 01:30:00 2.4 C 5.08 g/m*3 2.4 C 0 km/h
308 21-03-2019 01:35:00 2.4 C 5.14 g/m*3 2.4 C 0 km/h
309 21-03-2019 01:40:00 2.3 C 5.05 g/m*3 2.3 C 0 km/h
310 21-03-2019 01:45:00 2.3 C 5.1 g/m*3 2.3 C 0 km/h
311 21-03-2019 01:50:00 2.3 C 5.1 g/m*3 2.3 C 0 km/h
312 21-03-2019 01:55:00 2.2 C 5.07 g/m*3 2.2 C 0 km/h
313 21-03-2019 02:00:00 2 C 5 g/m*3 2 C 0 km/h
314 21-03-2019 02:05:00 1.9 C 4.97 g/m*3 1.9 C 0 km/h
315 21-03-2019 02:10:00 1.8 C 4.93 g/m*3 1.8 C 0 km/h
316 21-03-2019 02:15:00 1.8 C 4.99 g/m*3 1.8 C 0 km/h
317 21-03-2019 02:20:00 1.8 C 4.99 g/m*3 1.8 C 0 km/h
318 21-03-2019 02:25:00 1.8 C 4.99 g/m*3 1.8 C 0 km/h
319 21-03-2019 02:30:00 1.8 C 4.99 g/m*3 1.8 C 0 km/h
320 21-03-2019 02:35:00 1.9 C 5.08 g/m*3 1.9 C 0 km/h
321 21-03-2019 02:40:00 1.9 C 5.08 g/m*3 1.9 C 0 km/h
322 21-03-2019 02:45:00 1.8 C 4.99 g/m*3 1.8 C 0 km/h
323 21-03-2019 02:50:00 1.7 C 4.95 g/m*3 1.7 C 0 km/h
324 21-03-2019 02:55:00 1.6 C 4.92 g/m*3 1.6 C 0 km/h
325 21-03-2019 03:00:00 1.6 C 4.92 g/m*3 1.6 C 0 km/h
Sensor: Nr:Datum:Temp:Abs-Feuchte:Windchill:Wind:
Aussen-T/F 326 21-03-2019 03:05:00 1.5 C 4.89 g/m*3 1.5 C 0 km/h
327 21-03-2019 03:10:00 1.5 C 4.94 g/m*3 1.5 C 0 km/h
328 21-03-2019 03:15:00 1.4 C 4.91 g/m*3 1.4 C 0 km/h
329 21-03-2019 03:20:00 1.4 C 4.91 g/m*3 1.4 C 0 km/h
330 21-03-2019 03:25:00 1.3 C 4.87 g/m*3 1.3 C 0 km/h
331 21-03-2019 03:30:00 1.2 C 4.84 g/m*3 1.2 C 0 km/h
332 21-03-2019 03:35:00 1.2 C 4.84 g/m*3 1.2 C 0 km/h
333 21-03-2019 03:40:00 1.2 C 4.84 g/m*3 1.2 C 0 km/h
334 21-03-2019 03:45:00 1.2 C 4.84 g/m*3 1.2 C 0 km/h
335 21-03-2019 03:50:00 1.1 C 4.81 g/m*3 1.1 C 0 km/h
336 21-03-2019 03:55:00 1.1 C 4.81 g/m*3 1.1 C 0 km/h
337 21-03-2019 04:00:00 1.1 C 4.86 g/m*3 1.1 C 0 km/h
338 21-03-2019 04:05:00 1 C 4.83 g/m*3 1 C 0 km/h
339 21-03-2019 04:10:00 0.9 C 4.74 g/m*3 0.9 C 0 km/h
340 21-03-2019 04:15:00 0.9 C 4.79 g/m*3 0.9 C 0 km/h
341 21-03-2019 04:20:00 0.9 C 4.79 g/m*3 0.9 C 0 km/h
342 21-03-2019 04:25:00 1 C 4.83 g/m*3 1 C 0 km/h
343 21-03-2019 04:30:00 1.1 C 4.86 g/m*3 1.1 C 0 km/h
344 21-03-2019 04:35:00 1.2 C 4.89 g/m*3 1.2 C 0 km/h
345 21-03-2019 04:40:00 1.2 C 4.89 g/m*3 1.2 C 0 km/h
346 21-03-2019 04:45:00 1.1 C 4.86 g/m*3 1.1 C 0 km/h
347 21-03-2019 04:50:00 0.8 C 4.71 g/m*3 0.8 C 0 km/h
348 21-03-2019 04:55:00 0.7 C 4.73 g/m*3 0.7 C 0 km/h
349 21-03-2019 05:00:00 0.7 C 4.73 g/m*3 0.7 C 0 km/h
350 21-03-2019 05:05:00 0.7 C 4.73 g/m*3 0.7 C 0 km/h
Sensor: Nr:Datum:Temp:Abs-Feuchte:Windchill:Wind:
Aussen-T/F 351 21-03-2019 05:10:00 0.6 C 4.7 g/m*3 0.6 C 0 km/h
352 21-03-2019 05:15:00 0.6 C 4.7 g/m*3 0.6 C 0 km/h
353 21-03-2019 05:20:00 0.7 C 4.78 g/m*3 0.7 C 0 km/h
354 21-03-2019 05:25:00 0.7 C 4.78 g/m*3 0.7 C 0 km/h
355 21-03-2019 05:30:00 0.8 C 4.81 g/m*3 0.8 C 0 km/h
356 21-03-2019 05:35:00 0.7 C 4.78 g/m*3 0.7 C 0 km/h
357 21-03-2019 05:40:00 0.6 C 4.7 g/m*3 0.6 C 0 km/h
358 21-03-2019 05:45:00 0.5 C 4.66 g/m*3 0.5 C 0 km/h
359 21-03-2019 05:50:00 0.4 C 4.63 g/m*3 0.4 C 0 km/h
360 21-03-2019 05:55:00 0.4 C 4.63 g/m*3 0.4 C 0 km/h
361 21-03-2019 06:00:00 0.3 C 4.6 g/m*3 0.3 C 0 km/h
362 21-03-2019 06:05:00 0.3 C 4.65 g/m*3 0.3 C 0 km/h
363 21-03-2019 06:10:00 0.3 C 4.65 g/m*3 0.3 C 0 km/h
364 21-03-2019 06:15:00 0.5 C 4.71 g/m*3 0.5 C 0 km/h
365 21-03-2019 06:20:00 0.5 C 4.71 g/m*3 0.5 C 0 km/h
366 21-03-2019 06:25:00 0.4 C 4.68 g/m*3 0.4 C 0 km/h
367 21-03-2019 06:30:00 0.4 C 4.68 g/m*3 0.4 C 0 km/h
368 21-03-2019 06:35:00 0.3 C 4.65 g/m*3 0.3 C 0 km/h
369 21-03-2019 06:40:00 0.3 C 4.65 g/m*3 0.3 C 0 km/h
370 21-03-2019 06:45:00 0.2 C 4.62 g/m*3 0.2 C 0 km/h
371 21-03-2019 06:50:00 0.2 C 4.62 g/m*3 0.2 C 0 km/h
372 21-03-2019 06:55:00 0.3 C 4.65 g/m*3 0.3 C 0 km/h
373 21-03-2019 07:00:00 0.3 C 4.65 g/m*3 0.3 C 0 km/h
374 21-03-2019 07:05:00 0.3 C 4.65 g/m*3 0.3 C 0 km/h
375 21-03-2019 07:10:00 0.3 C 4.65 g/m*3 0.3 C 0 km/h
Sensor: Nr:Datum:Temp:Abs-Feuchte:Windchill:Wind:
Aussen-T/F 376 21-03-2019 07:15:00 0.3 C 4.65 g/m*3 0.3 C 0 km/h
377 21-03-2019 07:20:00 0.4 C 4.68 g/m*3 0.4 C 0 km/h
378 21-03-2019 07:25:00 0.7 C 4.83 g/m*3 0.7 C 0 km/h
379 21-03-2019 07:30:00 0.8 C 4.86 g/m*3 0.8 C 0 km/h
380 21-03-2019 07:35:00 0.8 C 4.86 g/m*3 0.8 C 0 km/h
381 21-03-2019 07:40:00 0.8 C 4.86 g/m*3 0.8 C 0 km/h
382 21-03-2019 07:45:00 0.8 C 4.81 g/m*3 0.8 C 0 km/h
383 21-03-2019 07:50:00 0.8 C 4.81 g/m*3 0.8 C 0 km/h
384 21-03-2019 07:55:00 0.9 C 4.85 g/m*3 0.9 C 0 km/h
385 21-03-2019 08:00:00 0.9 C 4.85 g/m*3 0.9 C 0 km/h
386 21-03-2019 08:05:00 0.9 C 4.9 g/m*3 0.9 C 0 km/h
387 21-03-2019 08:10:00 1 C 4.93 g/m*3 1 C 0 km/h
388 21-03-2019 08:15:00 1.1 C 4.96 g/m*3 1.1 C 0 km/h
389 21-03-2019 08:20:00 1.1 C 4.96 g/m*3 1.1 C 0 km/h
390 21-03-2019 08:25:00 1.2 C 5 g/m*3 1.2 C 0 km/h
391 21-03-2019 08:30:00 1.3 C 5.03 g/m*3 1.3 C 0 km/h
392 21-03-2019 08:35:00 1.3 C 5.03 g/m*3 1.3 C 0 km/h
393 21-03-2019 08:40:00 1.4 C 5.07 g/m*3 1.4 C 0 km/h
394 21-03-2019 08:45:00 1.4 C 5.07 g/m*3 1.4 C 0 km/h
395 21-03-2019 08:50:00 1.6 C 5.14 g/m*3 1.6 C 0 km/h
396 21-03-2019 08:55:00 1.7 C 5.17 g/m*3 1.7 C 0 km/h
397 21-03-2019 09:00:00 1.8 C 5.21 g/m*3 1.8 C 0 km/h
398 21-03-2019 09:05:00 1.8 C 5.21 g/m*3 1.8 C 0 km/h
399 21-03-2019 09:10:00 1.9 C 5.24 g/m*3 1.9 C 0 km/h
400 21-03-2019 09:15:00 2.1 C 5.31 g/m*3 2.1 C 0 km/h
Sensor: Nr:Datum:Temp:Abs-Feuchte:Windchill:Wind:
Aussen-T/F 401 21-03-2019 09:20:00 2.2 C 5.35 g/m*3 2.2 C 0 km/h
402 21-03-2019 09:25:00 2.3 C 5.39 g/m*3 2.3 C 0 km/h
403 21-03-2019 09:30:00 2.5 C 5.46 g/m*3 2.5 C 0 km/h
404 21-03-2019 09:35:00 2.6 C 5.5 g/m*3 2.6 C 0 km/h
405 21-03-2019 09:40:00 2.8 C 5.57 g/m*3 2.8 C 0 km/h
406 21-03-2019 09:45:00 3.1 C 5.69 g/m*3 3.1 C 0 km/h
407 21-03-2019 09:50:00 3.3 C 5.76 g/m*3 3.3 C 0 km/h
408 21-03-2019 09:55:00 3.7 C 5.92 g/m*3 3.7 C 0 km/h
409 21-03-2019 10:00:00 4 C 6.04 g/m*3 4 C 0 km/h
410 21-03-2019 10:05:00 4.3 C 6.16 g/m*3 4.3 C 0 km/h
411 21-03-2019 10:10:00 4.6 C 6.22 g/m*3 4.6 C 0 km/h
412 21-03-2019 10:15:00 4.8 C 6.24 g/m*3 4.8 C 0 km/h
413 21-03-2019 10:20:00 5.1 C 6.29 g/m*3 5.1 C 0 km/h
414 21-03-2019 10:25:00 5.4 C 6.35 g/m*3 5.4 C 0 km/h
415 21-03-2019 10:30:00 5.7 C 6.4 g/m*3 5.7 C 0 km/h
416 21-03-2019 10:35:00 5.9 C 6.42 g/m*3 5.9 C 0 km/h
417 21-03-2019 10:40:00 6.2 C 6.47 g/m*3 6.2 C 0 km/h
418 21-03-2019 10:45:00 6.5 C 6.52 g/m*3 6.5 C 1.6 km/h
419 21-03-2019 10:50:00 6.8 C 6.58 g/m*3 6.8 C 0 km/h
420 21-03-2019 10:55:00 7.2 C 6.67 g/m*3 7.2 C 0 km/h
421 21-03-2019 11:00:00 7.4 C 6.76 g/m*3 7.4 C 0 km/h
422 21-03-2019 11:05:00 7.7 C 6.81 g/m*3 7.7 C 0 km/h
423 21-03-2019 11:10:00 8.1 C 6.82 g/m*3 8.1 C 0 km/h
424 21-03-2019 11:15:00 8.5 C 7 g/m*3 8.5 C 0 km/h
425 21-03-2019 11:20:00 8.8 C 6.88 g/m*3 8.8 C 0 km/h
Sensor: Nr:Datum:Temp:Abs-Feuchte:Windchill:Wind:
Aussen-T/F 426 21-03-2019 11:25:00 9.2 C 7.14 g/m*3 9.2 C 0 km/h
427 21-03-2019 11:30:00 9.4 C 6.78 g/m*3 9.4 C 0 km/h
428 21-03-2019 11:35:00 9.7 C 6.82 g/m*3 9.7 C 0 km/h
429 21-03-2019 11:40:00 10.1 C 6.62 g/m*3 10.1 C 0 km/h
430 21-03-2019 11:45:00 10.4 C 6.65 g/m*3 10.4 C 1.6 km/h
431 21-03-2019 11:50:00 10.8 C 6.42 g/m*3 10.8 C 0 km/h
432 21-03-2019 11:55:00 11.2 C 6.28 g/m*3 11.2 C 1.6 km/h
433 21-03-2019 12:00:00 11.6 C 6.34 g/m*3 11.6 C 6.4 km/h
434 21-03-2019 12:05:00 11.9 C 6.35 g/m*3 11.9 C 1.6 km/h
435 21-03-2019 12:10:00 12.1 C 6.11 g/m*3 12.1 C 6.4 km/h
436 21-03-2019 12:15:00 12.4 C 6.23 g/m*3 12.4 C 8.1 km/h
437 21-03-2019 12:20:00 12.7 C 6.23 g/m*3 12.7 C 8.1 km/h
438 21-03-2019 12:25:00 13 C 6.35 g/m*3 13 C 11.3 km/h
439 21-03-2019 12:30:00 13.2 C 6.2 g/m*3 13.2 C 8.1 km/h
440 21-03-2019 12:35:00 13.4 C 6.51 g/m*3 13.4 C 6.4 km/h
441 21-03-2019 12:40:00 13.6 C 5.65 g/m*3 13.6 C 11.3 km/h
442 21-03-2019 12:45:00 13.8 C 5.96 g/m*3 13.8 C 8.1 km/h
443 21-03-2019 12:50:00 14 C 5.55 g/m*3 14 C 6.4 km/h
444 21-03-2019 12:55:00 14.2 C 5.62 g/m*3 14.2 C 8.1 km/h
445 21-03-2019 13:00:00 14.4 C 5.81 g/m*3 14.4 C 0 km/h
446 21-03-2019 13:05:00 14.8 C 5.57 g/m*3 14.8 C 0 km/h
447 21-03-2019 13:10:00 15.1 C 5.81 g/m*3 15.1 C 4.8 km/h
448 21-03-2019 13:15:00 15.2 C 5.71 g/m*3 15.2 C 6.4 km/h
449 21-03-2019 13:20:00 15.3 C 6.01 g/m*3 15.3 C 1.6 km/h
450 21-03-2019 13:25:00 15.4 C 5.65 g/m*3 15.4 C 8.1 km/h
Sensor: Nr:Datum:Temp:Abs-Feuchte:Windchill:Wind:
Aussen-T/F 451 21-03-2019 13:30:00 15.4 C 5.65 g/m*3 15.4 C 6.4 km/h
452 21-03-2019 13:35:00 15.6 C 5.72 g/m*3 15.6 C 4.8 km/h
453 21-03-2019 13:40:00 15.8 C 5.52 g/m*3 15.8 C 4.8 km/h
454 21-03-2019 13:45:00 15.9 C 5.82 g/m*3 15.9 C 8.1 km/h
455 21-03-2019 13:50:00 16.1 C 5.76 g/m*3 16.1 C 8.1 km/h
456 21-03-2019 13:55:00 16.2 C 5.65 g/m*3 16.2 C 6.4 km/h
457 21-03-2019 14:00:00 16.2 C 5.38 g/m*3 16.2 C 3.2 km/h
458 21-03-2019 14:05:00 16.3 C 5.41 g/m*3 16.3 C 4.8 km/h
459 21-03-2019 14:10:00 16.3 C 5.41 g/m*3 16.3 C 3.2 km/h
460 21-03-2019 14:15:00 16.3 C 5.69 g/m*3 16.3 C 3.2 km/h
461 21-03-2019 14:20:00 16.3 C 5.55 g/m*3 16.3 C 3.2 km/h
462 21-03-2019 14:25:00 16.3 C 5.27 g/m*3 16.3 C 8.1 km/h
463 21-03-2019 14:30:00 16.2 C 5.38 g/m*3 16.2 C 6.4 km/h
464 21-03-2019 14:35:00 16.3 C 5.41 g/m*3 16.3 C 6.4 km/h
465 21-03-2019 14:40:00 16.2 C 5.38 g/m*3 16.2 C 11.3 km/h
466 21-03-2019 14:45:00 16.2 C 5.38 g/m*3 16.2 C 9.7 km/h
467 21-03-2019 14:50:00 16.1 C 5.62 g/m*3 16.1 C 4.8 km/h
468 21-03-2019 14:55:00 16.1 C 5.48 g/m*3 16.1 C 6.4 km/h
469 21-03-2019 15:00:00 16.1 C 5.35 g/m*3 16.1 C 4.8 km/h
470 21-03-2019 15:05:00 16.2 C 5.38 g/m*3 16.2 C 8.1 km/h
471 21-03-2019 15:10:00 16.3 C 5.55 g/m*3 16.3 C 8.1 km/h
472 21-03-2019 15:15:00 16.3 C 5.41 g/m*3 16.3 C 8.1 km/h
473 21-03-2019 15:20:00 16.3 C 5.55 g/m*3 16.3 C 6.4 km/h
474 21-03-2019 15:25:00 16.3 C 5.41 g/m*3 16.3 C 3.2 km/h
475 21-03-2019 15:30:00 16.4 C 5.44 g/m*3 16.4 C 4.8 km/h
Sensor: Nr:Datum:Temp:Abs-Feuchte:Windchill:Wind:
Aussen-T/F 476 21-03-2019 15:35:00 16.6 C 5.51 g/m*3 16.6 C 6.4 km/h
477 21-03-2019 15:40:00 16.6 C 5.51 g/m*3 16.6 C 6.4 km/h
478 21-03-2019 15:45:00 16.6 C 5.37 g/m*3 16.6 C 1.6 km/h
479 21-03-2019 15:50:00 16.7 C 5.4 g/m*3 16.7 C 4.8 km/h
480 21-03-2019 15:55:00 16.8 C 5.58 g/m*3 16.8 C 4.8 km/h
481 21-03-2019 16:00:00 16.9 C 5.47 g/m*3 16.9 C 3.2 km/h
482 21-03-2019 16:05:00 17.2 C 5.71 g/m*3 17.2 C 4.8 km/h
483 21-03-2019 16:10:00 17.3 C 5.6 g/m*3 17.3 C 12.9 km/h
484 21-03-2019 16:15:00 17.3 C 5.75 g/m*3 17.3 C 12.9 km/h
485 21-03-2019 16:20:00 17.4 C 5.63 g/m*3 17.4 C 6.4 km/h
486 21-03-2019 16:25:00 17.6 C 5.7 g/m*3 17.6 C 6.4 km/h
487 21-03-2019 16:30:00 17.7 C 5.58 g/m*3 17.7 C 9.7 km/h
488 21-03-2019 16:35:00 17.8 C 5.62 g/m*3 17.8 C 6.4 km/h
489 21-03-2019 16:40:00 17.9 C 5.65 g/m*3 17.9 C 8.1 km/h
490 21-03-2019 16:45:00 18.1 C 5.87 g/m*3 18.1 C 6.4 km/h
491 21-03-2019 16:50:00 18.1 C 5.72 g/m*3 18.1 C 9.7 km/h
492 21-03-2019 16:55:00 18.2 C 5.75 g/m*3 18.2 C 6.4 km/h
493 21-03-2019 17:00:00 18.2 C 5.6 g/m*3 18.2 C 6.4 km/h
494 21-03-2019 17:05:00 18.2 C 5.6 g/m*3 18.2 C 6.4 km/h
495 21-03-2019 17:10:00 18.2 C 5.6 g/m*3 18.2 C 9.7 km/h
496 21-03-2019 17:15:00 18.3 C 5.47 g/m*3 18.3 C 8.1 km/h
497 21-03-2019 17:20:00 18.2 C 5.75 g/m*3 18.2 C 6.4 km/h
498 21-03-2019 17:25:00 18.1 C 5.56 g/m*3 18.1 C 6.4 km/h
499 21-03-2019 17:30:00 18 C 5.68 g/m*3 18 C 9.7 km/h
500 21-03-2019 17:35:00 17.9 C 5.65 g/m*3 17.9 C 6.4 km/h
Sensor: Nr:Datum:Temp:Abs-Feuchte:Windchill:Wind:
Aussen-T/F 501 21-03-2019 17:40:00 17.9 C 5.8 g/m*3 17.9 C 8.1 km/h
502 21-03-2019 17:45:00 17.8 C 6.37 g/m*3 17.8 C 8.1 km/h
503 21-03-2019 17:50:00 17.8 C 6.68 g/m*3 17.8 C 1.6 km/h
504 21-03-2019 17:55:00 17.6 C 6.3 g/m*3 17.6 C 1.6 km/h
505 21-03-2019 18:00:00 17.4 C 6.82 g/m*3 17.4 C 3.2 km/h
506 21-03-2019 18:05:00 17.1 C 6.84 g/m*3 17.1 C 4.8 km/h
507 21-03-2019 18:10:00 16.6 C 6.78 g/m*3 16.6 C 4.8 km/h
508 21-03-2019 18:15:00 16 C 6.81 g/m*3 16 C 4.8 km/h
509 21-03-2019 18:20:00 15.3 C 6.66 g/m*3 15.3 C 4.8 km/h
510 21-03-2019 18:25:00 14.8 C 6.59 g/m*3 14.8 C 4.8 km/h
511 21-03-2019 18:30:00 14.2 C 6.59 g/m*3 14.2 C 4.8 km/h
512 21-03-2019 18:35:00 13.7 C 6.51 g/m*3 13.7 C 4.8 km/h
513 21-03-2019 18:40:00 13.3 C 6.47 g/m*3 13.3 C 6.4 km/h
514 21-03-2019 18:45:00 12.9 C 6.42 g/m*3 12.9 C 6.4 km/h
515 21-03-2019 18:50:00 12.6 C 6.31 g/m*3 12.6 C 6.4 km/h
516 21-03-2019 18:55:00 12.3 C 6.41 g/m*3 12.3 C 6.4 km/h
517 21-03-2019 19:00:00 12.1 C 6.33 g/m*3 12.1 C 6.4 km/h
518 21-03-2019 19:05:00 11.9 C 6.35 g/m*3 11.9 C 6.4 km/h
519 21-03-2019 19:10:00 11.7 C 6.38 g/m*3 11.7 C 6.4 km/h
520 21-03-2019 19:15:00 11.4 C 6.36 g/m*3 11.4 C 4.8 km/h
521 21-03-2019 19:20:00 11.2 C 6.39 g/m*3 11.2 C 6.4 km/h
522 21-03-2019 19:25:00 10.9 C 6.37 g/m*3 10.9 C 4.8 km/h
523 21-03-2019 19:30:00 10.8 C 6.52 g/m*3 10.8 C 4.8 km/h
524 21-03-2019 19:35:00 10.6 C 6.44 g/m*3 10.6 C 0 km/h
525 21-03-2019 19:40:00 10.4 C 6.36 g/m*3 10.4 C 0 km/h
Sensor: Nr:Datum:Temp:Abs-Feuchte:Windchill:Wind:
Aussen-T/F 526 21-03-2019 19:45:00 10.3 C 6.42 g/m*3 10.3 C 0 km/h
527 21-03-2019 19:50:00 10.2 C 6.47 g/m*3 10.2 C 0 km/h
528 21-03-2019 19:55:00 10.1 C 6.52 g/m*3 10.1 C 0 km/h
529 21-03-2019 20:00:00 9.8 C 6.4 g/m*3 9.8 C 0 km/h
530 21-03-2019 20:05:00 9.7 C 6.45 g/m*3 9.7 C 3.2 km/h
531 21-03-2019 20:10:00 9.6 C 6.41 g/m*3 9.6 C 1.6 km/h
532 21-03-2019 20:15:00 9.4 C 6.51 g/m*3 9.4 C 0 km/h
533 21-03-2019 20:20:00 9.3 C 6.47 g/m*3 9.3 C 1.6 km/h
534 21-03-2019 20:25:00 9.2 C 6.43 g/m*3 9.2 C 1.6 km/h
535 21-03-2019 20:30:00 9.2 C 6.43 g/m*3 9.2 C 0 km/h
536 21-03-2019 20:35:00 9.1 C 6.39 g/m*3 9.1 C 0 km/h
537 21-03-2019 20:40:00 9 C 6.44 g/m*3 9 C 0 km/h
538 21-03-2019 20:45:00 8.8 C 6.27 g/m*3 8.8 C 0 km/h
539 21-03-2019 20:50:00 8.8 C 6.35 g/m*3 8.8 C 0 km/h
540 21-03-2019 20:55:00 8.6 C 6.36 g/m*3 8.6 C 0 km/h
541 21-03-2019 21:00:00 8.4 C 6.28 g/m*3 8.4 C 0 km/h
542 21-03-2019 21:05:00 8.3 C 6.24 g/m*3 8.3 C 0 km/h
543 21-03-2019 21:10:00 8.2 C 6.2 g/m*3 8.2 C 0 km/h
544 21-03-2019 21:15:00 8.1 C 6.16 g/m*3 8.1 C 0 km/h
545 21-03-2019 21:20:00 7.8 C 5.96 g/m*3 7.8 C 0 km/h
546 21-03-2019 21:25:00 7.7 C 6 g/m*3 7.7 C 0 km/h
547 21-03-2019 21:30:00 7.6 C 5.88 g/m*3 7.6 C 0 km/h
548 21-03-2019 21:35:00 7.6 C 5.88 g/m*3 7.6 C 0 km/h
549 21-03-2019 21:40:00 7.3 C 5.93 g/m*3 7.3 C 0 km/h
550 21-03-2019 21:45:00 7.2 C 6.04 g/m*3 7.2 C 0 km/h
Sensor: Nr:Datum:Temp:Abs-Feuchte:Windchill:Wind:
Aussen-T/F 551 21-03-2019 21:50:00 6.9 C 6 g/m*3 6.9 C 0 km/h
552 21-03-2019 21:55:00 6.7 C 6 g/m*3 6.7 C 0 km/h
553 21-03-2019 22:00:00 6.5 C 5.85 g/m*3 6.5 C 0 km/h
554 21-03-2019 22:05:00 6.5 C 5.85 g/m*3 6.5 C 0 km/h
555 21-03-2019 22:10:00 6.6 C 5.89 g/m*3 6.6 C 0 km/h
556 21-03-2019 22:15:00 6.6 C 5.74 g/m*3 6.6 C 0 km/h
557 21-03-2019 22:20:00 6.6 C 5.74 g/m*3 6.6 C 0 km/h
558 21-03-2019 22:25:00 6.4 C 5.74 g/m*3 6.4 C 0 km/h
559 21-03-2019 22:30:00 6.1 C 5.7 g/m*3 6.1 C 0 km/h
560 21-03-2019 22:35:00 5.8 C 5.66 g/m*3 5.8 C 0 km/h
561 21-03-2019 22:40:00 5.7 C 5.76 g/m*3 5.7 C 0 km/h
562 21-03-2019 22:45:00 5.7 C 5.76 g/m*3 5.7 C 0 km/h
563 21-03-2019 22:50:00 5.7 C 5.76 g/m*3 5.7 C 0 km/h
564 21-03-2019 22:55:00 5.7 C 5.76 g/m*3 5.7 C 0 km/h
565 21-03-2019 23:00:00 5.6 C 5.73 g/m*3 5.6 C 0 km/h
566 21-03-2019 23:05:00 5.6 C 5.73 g/m*3 5.6 C 0 km/h
567 21-03-2019 23:10:00 5.6 C 5.73 g/m*3 5.6 C 0 km/h
568 21-03-2019 23:15:00 5.4 C 5.65 g/m*3 5.4 C 0 km/h
569 21-03-2019 23:20:00 5.4 C 5.65 g/m*3 5.4 C 0 km/h
570 21-03-2019 23:25:00 5.3 C 5.68 g/m*3 5.3 C 0 km/h
571 21-03-2019 23:30:00 5.2 C 5.65 g/m*3 5.2 C 0 km/h
572 21-03-2019 23:35:00 5.1 C 5.68 g/m*3 5.1 C 0 km/h
573 21-03-2019 23:40:00 5.1 C 5.68 g/m*3 5.1 C 0 km/h
574 21-03-2019 23:45:00 5 C 5.64 g/m*3 5 C 0 km/h
575 21-03-2019 23:50:00 5 C 5.64 g/m*3 5 C 0 km/h
Sensor: Nr:Datum:Temp:Abs-Feuchte:Windchill:Wind:
Aussen-T/F 576 21-03-2019 23:55:00 4.9 C 5.6 g/m*3 4.9 C 0 km/h
577 22-03-2019 00:00:00 4.8 C 5.57 g/m*3 4.8 C 0 km/h
578 22-03-2019 00:05:00 4.7 C 5.6 g/m*3 4.7 C 0 km/h
579 22-03-2019 00:10:00 4.7 C 5.6 g/m*3 4.7 C 0 km/h
580 22-03-2019 00:15:00 4.7 C 5.6 g/m*3 4.7 C 0 km/h
581 22-03-2019 00:20:00 4.6 C 5.56 g/m*3 4.6 C 0 km/h
582 22-03-2019 00:25:00 4.4 C 5.55 g/m*3 4.4 C 0 km/h
583 22-03-2019 00:30:00 4.3 C 5.51 g/m*3 4.3 C 0 km/h
584 22-03-2019 00:35:00 4.3 C 5.51 g/m*3 4.3 C 0 km/h
585 22-03-2019 00:40:00 4.2 C 5.48 g/m*3 4.2 C 0 km/h
586 22-03-2019 00:45:00 4.1 C 5.5 g/m*3 4.1 C 0 km/h
587 22-03-2019 00:50:00 4.2 C 5.54 g/m*3 4.2 C 0 km/h
588 22-03-2019 00:55:00 4.1 C 5.5 g/m*3 4.1 C 0 km/h
589 22-03-2019 01:00:00 4 C 5.47 g/m*3 4 C 0 km/h
590 22-03-2019 01:05:00 4 C 5.47 g/m*3 4 C 0 km/h
591 22-03-2019 01:10:00 3.9 C 5.43 g/m*3 3.9 C 0 km/h
592 22-03-2019 01:15:00 3.8 C 5.4 g/m*3 3.8 C 0 km/h
593 22-03-2019 01:20:00 3.7 C 5.42 g/m*3 3.7 C 0 km/h
594 22-03-2019 01:25:00 3.6 C 5.45 g/m*3 3.6 C 0 km/h
595 22-03-2019 01:30:00 3.7 C 5.48 g/m*3 3.7 C 0 km/h
596 22-03-2019 01:35:00 3.6 C 5.45 g/m*3 3.6 C 0 km/h
597 22-03-2019 01:40:00 3.6 C 5.45 g/m*3 3.6 C 0 km/h
598 22-03-2019 01:45:00 3.6 C 5.45 g/m*3 3.6 C 0 km/h
599 22-03-2019 01:50:00 3.4 C 5.37 g/m*3 3.4 C 0 km/h
600 22-03-2019 01:55:00 3.4 C 5.37 g/m*3 3.4 C 0 km/h
Sensor: Nr:Datum:Temp:Abs-Feuchte:Windchill:Wind:
Aussen-T/F 601 22-03-2019 02:00:00 3.4 C 5.37 g/m*3 3.4 C 0 km/h
602 22-03-2019 02:05:00 3.4 C 5.37 g/m*3 3.4 C 0 km/h
603 22-03-2019 02:10:00 3.3 C 5.34 g/m*3 3.3 C 0 km/h
604 22-03-2019 02:15:00 3.2 C 5.3 g/m*3 3.2 C 0 km/h
605 22-03-2019 02:20:00 3.2 C 5.3 g/m*3 3.2 C 0 km/h
606 22-03-2019 02:25:00 3.1 C 5.27 g/m*3 3.1 C 0 km/h
607 22-03-2019 02:30:00 3 C 5.23 g/m*3 3 C 0 km/h
608 22-03-2019 02:35:00 2.9 C 5.2 g/m*3 2.9 C 0 km/h
609 22-03-2019 02:40:00 2.8 C 5.22 g/m*3 2.8 C 0 km/h
610 22-03-2019 02:45:00 2.7 C 5.19 g/m*3 2.7 C 0 km/h
611 22-03-2019 02:50:00 2.7 C 5.19 g/m*3 2.7 C 0 km/h
612 22-03-2019 02:55:00 2.7 C 5.24 g/m*3 2.7 C 0 km/h
613 22-03-2019 03:00:00 2.7 C 5.24 g/m*3 2.7 C 0 km/h
614 22-03-2019 03:05:00 2.6 C 5.15 g/m*3 2.6 C 0 km/h
615 22-03-2019 03:10:00 2.4 C 5.08 g/m*3 2.4 C 0 km/h
616 22-03-2019 03:15:00 2.3 C 5.05 g/m*3 2.3 C 0 km/h
617 22-03-2019 03:20:00 2.2 C 5.07 g/m*3 2.2 C 0 km/h
618 22-03-2019 03:25:00 2.2 C 5.13 g/m*3 2.2 C 0 km/h
619 22-03-2019 03:30:00 2.3 C 5.16 g/m*3 2.3 C 0 km/h
620 22-03-2019 03:35:00 2.2 C 5.07 g/m*3 2.2 C 0 km/h
621 22-03-2019 03:40:00 2.1 C 5.04 g/m*3 2.1 C 0 km/h
622 22-03-2019 03:45:00 1.9 C 4.97 g/m*3 1.9 C 0 km/h
623 22-03-2019 03:50:00 1.8 C 4.99 g/m*3 1.8 C 0 km/h
624 22-03-2019 03:55:00 1.8 C 4.99 g/m*3 1.8 C 0 km/h
625 22-03-2019 04:00:00 1.9 C 5.08 g/m*3 1.9 C 0 km/h
Sensor: Nr:Datum:Temp:Abs-Feuchte:Windchill:Wind:
Aussen-T/F 626 22-03-2019 04:05:00 1.9 C 5.02 g/m*3 1.9 C 0 km/h
627 22-03-2019 04:10:00 1.9 C 5.08 g/m*3 1.9 C 0 km/h
628 22-03-2019 04:15:00 1.8 C 4.99 g/m*3 1.8 C 0 km/h
629 22-03-2019 04:20:00 1.8 C 5.04 g/m*3 1.8 C 0 km/h
630 22-03-2019 04:25:00 1.7 C 5.01 g/m*3 1.7 C 0 km/h
631 22-03-2019 04:30:00 1.7 C 5.01 g/m*3 1.7 C 0 km/h
632 22-03-2019 04:35:00 1.7 C 5.01 g/m*3 1.7 C 0 km/h
633 22-03-2019 04:40:00 1.6 C 4.97 g/m*3 1.6 C 0 km/h
634 22-03-2019 04:45:00 1.6 C 4.97 g/m*3 1.6 C 0 km/h
635 22-03-2019 04:50:00 1.6 C 5.03 g/m*3 1.6 C 0 km/h
636 22-03-2019 04:55:00 1.7 C 5.06 g/m*3 1.7 C 0 km/h
637 22-03-2019 05:00:00 1.7 C 5.06 g/m*3 1.7 C 0 km/h
638 22-03-2019 05:05:00 1.8 C 5.1 g/m*3 1.8 C 0 km/h
639 22-03-2019 05:10:00 1.7 C 5.01 g/m*3 1.7 C 0 km/h
640 22-03-2019 05:15:00 1.6 C 5.03 g/m*3 1.6 C 0 km/h
641 22-03-2019 05:20:00 1.7 C 5.06 g/m*3 1.7 C 0 km/h
642 22-03-2019 05:25:00 1.6 C 5.03 g/m*3 1.6 C 0 km/h
643 22-03-2019 05:30:00 1.6 C 5.03 g/m*3 1.6 C 0 km/h
644 22-03-2019 05:35:00 1.5 C 4.99 g/m*3 1.5 C 0 km/h
645 22-03-2019 05:40:00 1.4 C 4.96 g/m*3 1.4 C 0 km/h
646 22-03-2019 05:45:00 1.3 C 4.93 g/m*3 1.3 C 0 km/h
647 22-03-2019 05:50:00 1.3 C 4.93 g/m*3 1.3 C 0 km/h
648 22-03-2019 05:55:00 1.2 C 4.89 g/m*3 1.2 C 0 km/h
649 22-03-2019 06:00:00 1.3 C 4.93 g/m*3 1.3 C 0 km/h
650 22-03-2019 06:05:00 1.3 C 4.93 g/m*3 1.3 C 0 km/h
Sensor: Nr:Datum:Temp:Abs-Feuchte:Windchill:Wind:
Aussen-T/F 651 22-03-2019 06:10:00 1.3 C 4.93 g/m*3 1.3 C 0 km/h
652 22-03-2019 06:15:00 1.3 C 4.93 g/m*3 1.3 C 0 km/h
653 22-03-2019 06:20:00 1.2 C 4.89 g/m*3 1.2 C 0 km/h
654 22-03-2019 06:25:00 1.1 C 4.86 g/m*3 1.1 C 0 km/h
655 22-03-2019 06:30:00 1 C 4.83 g/m*3 1 C 0 km/h
656 22-03-2019 06:35:00 0.8 C 4.76 g/m*3 0.8 C 0 km/h
657 22-03-2019 06:40:00 0.8 C 4.76 g/m*3 0.8 C 0 km/h
658 22-03-2019 06:45:00 0.8 C 4.76 g/m*3 0.8 C 0 km/h
659 22-03-2019 06:50:00 0.9 C 4.85 g/m*3 0.9 C 0 km/h
660 22-03-2019 06:55:00 1 C 4.88 g/m*3 1 C 0 km/h
661 22-03-2019 07:00:00 1.2 C 4.95 g/m*3 1.2 C 0 km/h
662 22-03-2019 07:05:00 1.2 C 4.95 g/m*3 1.2 C 0 km/h
663 22-03-2019 07:10:00 1.2 C 4.95 g/m*3 1.2 C 0 km/h
664 22-03-2019 07:15:00 1.2 C 4.95 g/m*3 1.2 C 0 km/h
665 22-03-2019 07:20:00 1.3 C 4.98 g/m*3 1.3 C 0 km/h
666 22-03-2019 07:25:00 1.3 C 4.98 g/m*3 1.3 C 0 km/h
667 22-03-2019 07:30:00 1.2 C 4.95 g/m*3 1.2 C 0 km/h
668 22-03-2019 07:35:00 1.2 C 4.95 g/m*3 1.2 C 0 km/h
669 22-03-2019 07:40:00 1.2 C 4.95 g/m*3 1.2 C 0 km/h
670 22-03-2019 07:45:00 1.3 C 4.98 g/m*3 1.3 C 0 km/h
671 22-03-2019 07:50:00 1.3 C 4.98 g/m*3 1.3 C 0 km/h
672 22-03-2019 07:55:00 1.3 C 4.98 g/m*3 1.3 C 0 km/h
673 22-03-2019 08:00:00 1.4 C 5.01 g/m*3 1.4 C 0 km/h
674 22-03-2019 08:05:00 1.5 C 5.1 g/m*3 1.5 C 0 km/h
675 22-03-2019 08:10:00 1.7 C 5.17 g/m*3 1.7 C 0 km/h
Sensor: Nr:Datum:Temp:Abs-Feuchte:Windchill:Wind:
Aussen-T/F 676 22-03-2019 08:15:00 1.7 C 5.17 g/m*3 1.7 C 0 km/h
677 22-03-2019 08:20:00 1.8 C 5.21 g/m*3 1.8 C 0 km/h
678 22-03-2019 08:25:00 1.9 C 5.24 g/m*3 1.9 C 0 km/h
679 22-03-2019 08:30:00 1.9 C 5.24 g/m*3 1.9 C 0 km/h
680 22-03-2019 08:35:00 2.1 C 5.31 g/m*3 2.1 C 0 km/h
681 22-03-2019 08:40:00 2.2 C 5.35 g/m*3 2.2 C 0 km/h
682 22-03-2019 08:45:00 2.3 C 5.39 g/m*3 2.3 C 0 km/h
683 22-03-2019 08:50:00 2.4 C 5.42 g/m*3 2.4 C 0 km/h
684 22-03-2019 08:55:00 2.6 C 5.5 g/m*3 2.6 C 0 km/h
685 22-03-2019 09:00:00 2.7 C 5.54 g/m*3 2.7 C 0 km/h
686 22-03-2019 09:05:00 2.8 C 5.57 g/m*3 2.8 C 0 km/h
687 22-03-2019 09:10:00 2.9 C 5.61 g/m*3 2.9 C 0 km/h
688 22-03-2019 09:15:00 3.1 C 5.69 g/m*3 3.1 C 0 km/h
689 22-03-2019 09:20:00 3.3 C 5.76 g/m*3 3.3 C 0 km/h
690 22-03-2019 09:25:00 3.5 C 5.9 g/m*3 3.5 C 0 km/h
691 22-03-2019 09:30:00 3.7 C 5.92 g/m*3 3.7 C 0 km/h
692 22-03-2019 09:35:00 3.9 C 6.06 g/m*3 3.9 C 0 km/h
693 22-03-2019 09:40:00 4.2 C 6.19 g/m*3 4.2 C 0 km/h
694 22-03-2019 09:45:00 4.5 C 6.24 g/m*3 4.5 C 0 km/h
695 22-03-2019 09:50:00 4.8 C 6.44 g/m*3 4.8 C 0 km/h
696 22-03-2019 09:55:00 5.1 C 6.5 g/m*3 5.1 C 0 km/h
697 22-03-2019 10:00:00 5.4 C 6.56 g/m*3 5.4 C 0 km/h
698 22-03-2019 10:05:00 5.7 C 6.69 g/m*3 5.7 C 0 km/h
699 22-03-2019 10:10:00 6 C 6.75 g/m*3 6 C 0 km/h
700 22-03-2019 10:15:00 6.3 C 6.81 g/m*3 6.3 C 0 km/h
Sensor: Nr:Datum:Temp:Abs-Feuchte:Windchill:Wind:
Aussen-T/F 701 22-03-2019 10:20:00 6.5 C 6.9 g/m*3 6.5 C 0 km/h
702 22-03-2019 10:25:00 6.8 C 6.96 g/m*3 6.8 C 0 km/h
703 22-03-2019 10:30:00 7.1 C 7.02 g/m*3 7.1 C 0 km/h
704 22-03-2019 10:35:00 7.4 C 7.16 g/m*3 7.4 C 0 km/h
705 22-03-2019 10:40:00 7.8 C 7.26 g/m*3 7.8 C 0 km/h
706 22-03-2019 10:45:00 8.2 C 7.37 g/m*3 8.2 C 0 km/h
707 22-03-2019 10:50:00 8.6 C 7.39 g/m*3 8.6 C 0 km/h
708 22-03-2019 10:55:00 9 C 7.32 g/m*3 9 C 0 km/h
709 22-03-2019 11:00:00 9.4 C 7.42 g/m*3 9.4 C 0 km/h
710 22-03-2019 11:05:00 9.8 C 7.52 g/m*3 9.8 C 0 km/h
711 22-03-2019 11:10:00 10.3 C 7.47 g/m*3 10.3 C 0 km/h
712 22-03-2019 11:15:00 10.9 C 7.46 g/m*3 10.9 C 0 km/h
713 22-03-2019 11:20:00 11.3 C 7.55 g/m*3 11.3 C 0 km/h
714 22-03-2019 11:25:00 11.7 C 7.53 g/m*3 11.7 C 0 km/h
715 22-03-2019 11:30:00 12.1 C 7.61 g/m*3 12.1 C 0 km/h
716 22-03-2019 11:35:00 12.4 C 7.65 g/m*3 12.4 C 0 km/h
717 22-03-2019 11:40:00 12.7 C 7.79 g/m*3 12.7 C 0 km/h
718 22-03-2019 11:45:00 13 C 7.71 g/m*3 13 C 0 km/h
719 22-03-2019 11:50:00 13.3 C 7.86 g/m*3 13.3 C 0 km/h
720 22-03-2019 11:55:00 13.6 C 7.77 g/m*3 13.6 C 0 km/h
721 22-03-2019 12:00:00 13.9 C 7.43 g/m*3 13.9 C 0 km/h
722 22-03-2019 12:05:00 14.3 C 7.62 g/m*3 14.3 C 0 km/h
723 22-03-2019 12:10:00 14.6 C 7.51 g/m*3 14.6 C 0 km/h
724 22-03-2019 12:15:00 14.9 C 7.01 g/m*3 14.9 C 0 km/h
725 22-03-2019 12:20:00 15.2 C 7.01 g/m*3 15.2 C 0 km/h
Sensor: Nr:Datum:Temp:Abs-Feuchte:Windchill:Wind:
Aussen-T/F 726 22-03-2019 12:25:00 15.6 C 7.05 g/m*3 15.6 C 0 km/h
727 22-03-2019 12:30:00 15.9 C 6.77 g/m*3 15.9 C 6.4 km/h
728 22-03-2019 12:35:00 16.2 C 7.17 g/m*3 16.2 C 1.6 km/h
729 22-03-2019 12:40:00 16.4 C 6.98 g/m*3 16.4 C 8.1 km/h
730 22-03-2019 12:45:00 16.8 C 6.72 g/m*3 16.8 C 6.4 km/h
731 22-03-2019 12:50:00 16.9 C 6.62 g/m*3 16.9 C 8.1 km/h
732 22-03-2019 12:55:00 17.1 C 6.7 g/m*3 17.1 C 8.1 km/h
733 22-03-2019 13:00:00 17.3 C 6.63 g/m*3 17.3 C 8.1 km/h
734 22-03-2019 13:05:00 17.6 C 6.45 g/m*3 17.6 C 6.4 km/h
735 22-03-2019 13:10:00 17.8 C 6.68 g/m*3 17.8 C 11.3 km/h
736 22-03-2019 13:15:00 17.9 C 6.57 g/m*3 17.9 C 6.4 km/h
737 22-03-2019 13:20:00 17.9 C 6.87 g/m*3 17.9 C 12.9 km/h
738 22-03-2019 13:25:00 18 C 6.45 g/m*3 18 C 11.3 km/h
739 22-03-2019 13:30:00 18.1 C 6.33 g/m*3 18.1 C 12.9 km/h
740 22-03-2019 13:35:00 18.2 C 6.53 g/m*3 18.2 C 12.9 km/h
741 22-03-2019 13:40:00 18.3 C 6.1 g/m*3 18.3 C 11.3 km/h
742 22-03-2019 13:45:00 18.4 C 6.13 g/m*3 18.4 C 8.1 km/h
743 22-03-2019 13:50:00 18.8 C 6.44 g/m*3 18.8 C 6.4 km/h
744 22-03-2019 13:55:00 19.1 C 6.39 g/m*3 19.1 C 14.5 km/h
745 22-03-2019 14:00:00 19.2 C 6.27 g/m*3 19.2 C 16.1 km/h
746 22-03-2019 14:05:00 19.3 C 5.97 g/m*3 19.3 C 8.1 km/h
747 22-03-2019 14:10:00 19.4 C 6.17 g/m*3 19.4 C 8.1 km/h
748 22-03-2019 14:15:00 19.3 C 5.97 g/m*3 19.3 C 9.7 km/h
749 22-03-2019 14:20:00 19.2 C 6.27 g/m*3 19.2 C 6.4 km/h
750 22-03-2019 14:25:00 19.2 C 5.77 g/m*3 19.2 C 9.7 km/h
Sensor: Nr:Datum:Temp:Abs-Feuchte:Windchill:Wind:
Aussen-T/F 751 22-03-2019 14:30:00 19.3 C 5.81 g/m*3 19.3 C 6.4 km/h
752 22-03-2019 14:35:00 19.3 C 5.81 g/m*3 19.3 C 4.8 km/h
753 22-03-2019 14:40:00 19.3 C 5.97 g/m*3 19.3 C 1.6 km/h
754 22-03-2019 14:45:00 19.3 C 5.81 g/m*3 19.3 C 3.2 km/h
755 22-03-2019 14:50:00 19.4 C 6.01 g/m*3 19.4 C 6.4 km/h
756 22-03-2019 14:55:00 19.3 C 5.81 g/m*3 19.3 C 8.1 km/h
757 22-03-2019 15:00:00 19.4 C 5.84 g/m*3 19.4 C 6.4 km/h
758 22-03-2019 15:05:00 19.4 C 5.67 g/m*3 19.4 C 9.7 km/h
759 22-03-2019 15:10:00 19.5 C 6.21 g/m*3 19.5 C 12.9 km/h
760 22-03-2019 15:15:00 19.3 C 6.47 g/m*3 19.3 C 11.3 km/h
761 22-03-2019 15:20:00 19.3 C 6.63 g/m*3 19.3 C 4.8 km/h
762 22-03-2019 15:25:00 19.2 C 6.43 g/m*3 19.2 C 8.1 km/h
763 22-03-2019 15:30:00 19.2 C 6.6 g/m*3 19.2 C 9.7 km/h
764 22-03-2019 15:35:00 19.1 C 6.56 g/m*3 19.1 C 11.3 km/h
765 22-03-2019 15:40:00 19.2 C 6.6 g/m*3 19.2 C 11.3 km/h
766 22-03-2019 15:45:00 19.2 C 6.76 g/m*3 19.2 C 8.1 km/h
767 22-03-2019 15:50:00 19.2 C 6.6 g/m*3 19.2 C 11.3 km/h
768 22-03-2019 15:55:00 19.2 C 6.43 g/m*3 19.2 C 9.7 km/h
769 22-03-2019 16:00:00 19.2 C 6.6 g/m*3 19.2 C 9.7 km/h
770 22-03-2019 16:05:00 19.3 C 6.47 g/m*3 19.3 C 6.4 km/h
771 22-03-2019 16:10:00 19.3 C 6.63 g/m*3 19.3 C 6.4 km/h
772 22-03-2019 16:15:00 19.3 C 6.47 g/m*3 19.3 C 9.7 km/h
773 22-03-2019 16:20:00 19.3 C 6.47 g/m*3 19.3 C 9.7 km/h
774 22-03-2019 16:25:00 19.5 C 6.38 g/m*3 19.5 C 6.4 km/h
775 22-03-2019 16:30:00 19.7 C 6.45 g/m*3 19.7 C 3.2 km/h
Sensor: Nr:Datum:Temp:Abs-Feuchte:Windchill:Wind:
Aussen-T/F 776 22-03-2019 16:35:00 19.9 C 6.53 g/m*3 19.9 C 3.2 km/h
777 22-03-2019 16:40:00 20.3 C 6.51 g/m*3 20.3 C 3.2 km/h
778 22-03-2019 16:45:00 20.6 C 6.44 g/m*3 20.6 C 3.2 km/h
779 22-03-2019 16:50:00 20.8 C 6.16 g/m*3 20.8 C 4.8 km/h
780 22-03-2019 16:55:00 20.8 C 6.34 g/m*3 20.8 C 3.2 km/h
781 22-03-2019 17:00:00 21.1 C 6.63 g/m*3 21.1 C 9.7 km/h
782 22-03-2019 17:05:00 21.3 C 6.34 g/m*3 21.3 C 6.4 km/h
783 22-03-2019 17:10:00 21.3 C 6.34 g/m*3 21.3 C 8.1 km/h
784 22-03-2019 17:15:00 21.3 C 6.52 g/m*3 21.3 C 6.4 km/h
785 22-03-2019 17:20:00 21.3 C 6.52 g/m*3 21.3 C 9.7 km/h
786 22-03-2019 17:25:00 21.2 C 6.12 g/m*3 21.2 C 8.1 km/h
787 22-03-2019 17:30:00 20.9 C 5.83 g/m*3 20.9 C 3.2 km/h
788 22-03-2019 17:35:00 20.8 C 6.7 g/m*3 20.8 C 6.4 km/h
789 22-03-2019 17:40:00 20.7 C 5.94 g/m*3 20.7 C 6.4 km/h
790 22-03-2019 17:45:00 20.7 C 7.02 g/m*3 20.7 C 3.2 km/h
791 22-03-2019 17:50:00 20.6 C 6.62 g/m*3 20.6 C 3.2 km/h
792 22-03-2019 17:55:00 20.3 C 7.03 g/m*3 20.3 C 3.2 km/h
793 22-03-2019 18:00:00 19.9 C 7.39 g/m*3 19.9 C 3.2 km/h
794 22-03-2019 18:05:00 19.4 C 7.34 g/m*3 19.4 C 1.6 km/h
795 22-03-2019 18:10:00 18.9 C 7.13 g/m*3 18.9 C 3.2 km/h
796 22-03-2019 18:15:00 18.4 C 7.24 g/m*3 18.4 C 3.2 km/h
797 22-03-2019 18:20:00 17.7 C 7.09 g/m*3 17.7 C 4.8 km/h
798 22-03-2019 18:25:00 17 C 7.09 g/m*3 17 C 4.8 km/h
799 22-03-2019 18:30:00 16.4 C 7.12 g/m*3 16.4 C 4.8 km/h
800 22-03-2019 18:35:00 15.7 C 7.09 g/m*3 15.7 C 4.8 km/h
Sensor: Nr:Datum:Temp:Abs-Feuchte:Windchill:Wind:
Aussen-T/F 801 22-03-2019 18:40:00 14.9 C 7.01 g/m*3 14.9 C 4.8 km/h
802 22-03-2019 18:45:00 14.4 C 7.05 g/m*3 14.4 C 6.4 km/h
803 22-03-2019 18:50:00 14 C 7 g/m*3 14 C 6.4 km/h
804 22-03-2019 18:55:00 13.7 C 7.1 g/m*3 13.7 C 6.4 km/h
805 22-03-2019 19:00:00 13.3 C 7.05 g/m*3 13.3 C 4.8 km/h
806 22-03-2019 19:05:00 13.1 C 6.96 g/m*3 13.1 C 4.8 km/h
807 22-03-2019 19:10:00 12.7 C 6.9 g/m*3 12.7 C 6.4 km/h
808 22-03-2019 19:15:00 12.6 C 6.86 g/m*3 12.6 C 4.8 km/h
809 22-03-2019 19:20:00 12.3 C 6.84 g/m*3 12.3 C 6.4 km/h
810 22-03-2019 19:25:00 12.2 C 6.8 g/m*3 12.2 C 4.8 km/h
811 22-03-2019 19:30:00 12.1 C 6.86 g/m*3 12.1 C 4.8 km/h
812 22-03-2019 19:35:00 11.9 C 6.78 g/m*3 11.9 C 4.8 km/h
813 22-03-2019 19:40:00 11.8 C 6.84 g/m*3 11.8 C 6.4 km/h
814 22-03-2019 19:45:00 11.7 C 6.8 g/m*3 11.7 C 4.8 km/h
815 22-03-2019 19:50:00 11.6 C 6.86 g/m*3 11.6 C 6.4 km/h
816 22-03-2019 19:55:00 11.4 C 6.77 g/m*3 11.4 C 6.4 km/h
817 22-03-2019 20:00:00 11.3 C 6.83 g/m*3 11.3 C 6.4 km/h
818 22-03-2019 20:05:00 11.2 C 6.79 g/m*3 11.2 C 6.4 km/h
819 22-03-2019 20:10:00 11.1 C 6.75 g/m*3 11.1 C 6.4 km/h
820 22-03-2019 20:15:00 11 C 6.71 g/m*3 10.52 C 6.4 km/h
821 22-03-2019 20:20:00 10.9 C 6.76 g/m*3 10.9 C 4.8 km/h
822 22-03-2019 20:25:00 10.9 C 6.76 g/m*3 10.41 C 6.4 km/h
823 22-03-2019 20:30:00 10.8 C 6.72 g/m*3 10.8 C 4.8 km/h
824 22-03-2019 20:35:00 10.8 C 6.72 g/m*3 10.8 C 4.8 km/h
825 22-03-2019 20:40:00 10.7 C 6.78 g/m*3 10.7 C 3.2 km/h
Sensor: Nr:Datum:Temp:Abs-Feuchte:Windchill:Wind:
Aussen-T/F 826 22-03-2019 20:45:00 10.5 C 6.69 g/m*3 10.5 C 1.6 km/h
827 22-03-2019 20:50:00 10.4 C 6.65 g/m*3 10.4 C 3.2 km/h
828 22-03-2019 20:55:00 10.3 C 6.7 g/m*3 10.3 C 1.6 km/h
829 22-03-2019 21:00:00 10.1 C 6.62 g/m*3 10.1 C 1.6 km/h
830 22-03-2019 21:05:00 9.9 C 6.54 g/m*3 9.9 C 3.2 km/h
831 22-03-2019 21:10:00 9.7 C 6.55 g/m*3 9.7 C 0 km/h
832 22-03-2019 21:15:00 9.5 C 6.64 g/m*3 9.5 C 0 km/h
833 22-03-2019 21:20:00 9.3 C 6.56 g/m*3 9.3 C 0 km/h
834 22-03-2019 21:25:00 9.1 C 6.48 g/m*3 9.1 C 0 km/h
835 22-03-2019 21:30:00 8.9 C 6.48 g/m*3 8.9 C 0 km/h
836 22-03-2019 21:35:00 8.8 C 6.44 g/m*3 8.8 C 0 km/h
837 22-03-2019 21:40:00 8.7 C 6.4 g/m*3 8.7 C 0 km/h
838 22-03-2019 21:45:00 8.6 C 6.36 g/m*3 8.6 C 0 km/h
839 22-03-2019 21:50:00 8.4 C 6.19 g/m*3 8.4 C 0 km/h
840 22-03-2019 21:55:00 8.2 C 6.2 g/m*3 8.2 C 0 km/h
841 22-03-2019 22:00:00 8.2 C 6.28 g/m*3 8.2 C 0 km/h
842 22-03-2019 22:05:00 8.1 C 6.16 g/m*3 8.1 C 0 km/h
843 22-03-2019 22:10:00 7.8 C 6.2 g/m*3 7.8 C 0 km/h
844 22-03-2019 22:15:00 7.7 C 6.32 g/m*3 7.7 C 1.6 km/h
845 22-03-2019 22:20:00 7.6 C 6.36 g/m*3 7.6 C 0 km/h
846 22-03-2019 22:25:00 7.6 C 6.36 g/m*3 7.6 C 1.6 km/h
847 22-03-2019 22:30:00 7.6 C 6.44 g/m*3 7.6 C 3.2 km/h
848 22-03-2019 22:35:00 7.7 C 6.49 g/m*3 7.7 C 0 km/h
849 22-03-2019 22:40:00 7.8 C 6.45 g/m*3 7.8 C 1.6 km/h
850 22-03-2019 22:45:00 7.8 C 6.45 g/m*3 7.8 C 0 km/h
Sensor: Nr:Datum:Temp:Abs-Feuchte:Windchill:Wind:
Aussen-T/F 851 22-03-2019 22:50:00 7.7 C 6.32 g/m*3 7.7 C 1.6 km/h
852 22-03-2019 22:55:00 7.7 C 6.32 g/m*3 7.7 C 3.2 km/h
853 22-03-2019 23:00:00 7.4 C 6.2 g/m*3 7.4 C 0 km/h
854 22-03-2019 23:05:00 7.2 C 6.2 g/m*3 7.2 C 0 km/h
855 22-03-2019 23:10:00 6.9 C 6.16 g/m*3 6.9 C 0 km/h
856 22-03-2019 23:15:00 6.8 C 6.12 g/m*3 6.8 C 0 km/h
857 22-03-2019 23:20:00 6.7 C 6.08 g/m*3 6.7 C 0 km/h
858 22-03-2019 23:25:00 6.6 C 6.04 g/m*3 6.6 C 0 km/h
859 22-03-2019 23:30:00 6.5 C 6.07 g/m*3 6.5 C 0 km/h
860 22-03-2019 23:35:00 6.5 C 6.07 g/m*3 6.5 C 0 km/h
861 22-03-2019 23:40:00 6.6 C 6.11 g/m*3 6.6 C 0 km/h
862 22-03-2019 23:45:00 6.4 C 5.96 g/m*3 6.4 C 0 km/h
863 22-03-2019 23:50:00 6.3 C 6 g/m*3 6.3 C 0 km/h
864 22-03-2019 23:55:00 6.1 C 5.99 g/m*3 6.1 C 0 km/h
865 23-03-2019 00:00:00 6.1 C 5.99 g/m*3 6.1 C 0 km/h
866 23-03-2019 00:05:00 6 C 5.95 g/m*3 6 C 0 km/h
867 23-03-2019 00:10:00 5.8 C 5.87 g/m*3 5.8 C 0 km/h
868 23-03-2019 00:15:00 5.7 C 5.91 g/m*3 5.7 C 0 km/h
869 23-03-2019 00:20:00 5.7 C 5.91 g/m*3 5.7 C 0 km/h
870 23-03-2019 00:25:00 5.6 C 5.8 g/m*3 5.6 C 0 km/h
871 23-03-2019 00:30:00 5.5 C 5.76 g/m*3 5.5 C 0 km/h
872 23-03-2019 00:35:00 5.3 C 5.75 g/m*3 5.3 C 0 km/h
873 23-03-2019 00:40:00 5.2 C 5.78 g/m*3 5.2 C 0 km/h
874 23-03-2019 00:45:00 5.1 C 5.75 g/m*3 5.1 C 0 km/h
875 23-03-2019 00:50:00 5.1 C 5.81 g/m*3 5.1 C 0 km/h
Sensor: Nr:Datum:Temp:Abs-Feuchte:Windchill:Wind:
Aussen-T/F 876 23-03-2019 00:55:00 4.9 C 5.67 g/m*3 4.9 C 0 km/h
877 23-03-2019 01:00:00 4.8 C 5.7 g/m*3 4.8 C 0 km/h
878 23-03-2019 01:05:00 4.8 C 5.7 g/m*3 4.8 C 0 km/h
879 23-03-2019 01:10:00 4.9 C 5.81 g/m*3 4.9 C 0 km/h
880 23-03-2019 01:15:00 5.1 C 5.88 g/m*3 5.1 C 0 km/h
881 23-03-2019 01:20:00 5.2 C 5.85 g/m*3 5.2 C 0 km/h
882 23-03-2019 01:25:00 5 C 5.78 g/m*3 5 C 0 km/h
883 23-03-2019 01:30:00 4.8 C 5.7 g/m*3 4.8 C 0 km/h
884 23-03-2019 01:35:00 4.7 C 5.66 g/m*3 4.7 C 0 km/h
885 23-03-2019 01:40:00 4.6 C 5.62 g/m*3 4.6 C 0 km/h
886 23-03-2019 01:45:00 4.4 C 5.62 g/m*3 4.4 C 0 km/h
887 23-03-2019 01:50:00 4.3 C 5.58 g/m*3 4.3 C 0 km/h
888 23-03-2019 01:55:00 4.3 C 5.64 g/m*3 4.3 C 0 km/h
889 23-03-2019 02:00:00 4.2 C 5.61 g/m*3 4.2 C 0 km/h
890 23-03-2019 02:05:00 4.2 C 5.61 g/m*3 4.2 C 0 km/h
891 23-03-2019 02:10:00 4.1 C 5.57 g/m*3 4.1 C 0 km/h
892 23-03-2019 02:15:00 4.1 C 5.63 g/m*3 4.1 C 0 km/h
893 23-03-2019 02:20:00 4 C 5.59 g/m*3 4 C 0 km/h
894 23-03-2019 02:25:00 3.9 C 5.56 g/m*3 3.9 C 0 km/h
895 23-03-2019 02:30:00 3.9 C 5.62 g/m*3 3.9 C 0 km/h
896 23-03-2019 02:35:00 3.9 C 5.62 g/m*3 3.9 C 0 km/h
897 23-03-2019 02:40:00 3.9 C 5.56 g/m*3 3.9 C 0 km/h
898 23-03-2019 02:45:00 4 C 5.66 g/m*3 4 C 0 km/h
899 23-03-2019 02:50:00 4.2 C 5.73 g/m*3 4.2 C 0 km/h
900 23-03-2019 02:55:00 4.2 C 5.73 g/m*3 4.2 C 0 km/h
Sensor: Nr:Datum:Temp:Abs-Feuchte:Windchill:Wind:
Aussen-T/F 901 23-03-2019 03:00:00 4.2 C 5.73 g/m*3 4.2 C 0 km/h
902 23-03-2019 03:05:00 4.1 C 5.63 g/m*3 4.1 C 0 km/h
903 23-03-2019 03:10:00 4 C 5.59 g/m*3 4 C 0 km/h
904 23-03-2019 03:15:00 4 C 5.66 g/m*3 4 C 0 km/h
905 23-03-2019 03:20:00 3.8 C 5.52 g/m*3 3.8 C 0 km/h
906 23-03-2019 03:25:00 3.7 C 5.48 g/m*3 3.7 C 0 km/h
907 23-03-2019 03:30:00 3.6 C 5.51 g/m*3 3.6 C 0 km/h
908 23-03-2019 03:35:00 3.5 C 5.47 g/m*3 3.5 C 0 km/h
909 23-03-2019 03:40:00 3.3 C 5.4 g/m*3 3.3 C 0 km/h
910 23-03-2019 03:45:00 3.3 C 5.46 g/m*3 3.3 C 0 km/h
911 23-03-2019 03:50:00 3.4 C 5.5 g/m*3 3.4 C 0 km/h
912 23-03-2019 03:55:00 3.4 C 5.5 g/m*3 3.4 C 0 km/h
913 23-03-2019 04:00:00 3.4 C 5.5 g/m*3 3.4 C 0 km/h
914 23-03-2019 04:05:00 3.4 C 5.5 g/m*3 3.4 C 0 km/h
915 23-03-2019 04:10:00 3.4 C 5.5 g/m*3 3.4 C 0 km/h
916 23-03-2019 04:15:00 3.3 C 5.46 g/m*3 3.3 C 0 km/h
917 23-03-2019 04:20:00 3.3 C 5.46 g/m*3 3.3 C 0 km/h
918 23-03-2019 04:25:00 3.4 C 5.5 g/m*3 3.4 C 0 km/h
919 23-03-2019 04:30:00 3.5 C 5.6 g/m*3 3.5 C 0 km/h
920 23-03-2019 04:35:00 3.6 C 5.63 g/m*3 3.6 C 0 km/h
921 23-03-2019 04:40:00 3.6 C 5.57 g/m*3 3.6 C 0 km/h
922 23-03-2019 04:45:00 3.5 C 5.47 g/m*3 3.5 C 0 km/h
923 23-03-2019 04:50:00 3.4 C 5.5 g/m*3 3.4 C 0 km/h
924 23-03-2019 04:55:00 3.3 C 5.46 g/m*3 3.3 C 0 km/h
925 23-03-2019 05:00:00 3.5 C 5.6 g/m*3 3.5 C 0 km/h
Sensor: Nr:Datum:Temp:Abs-Feuchte:Windchill:Wind:
Aussen-T/F 926 23-03-2019 05:05:00 3.6 C 5.57 g/m*3 3.6 C 0 km/h
927 23-03-2019 05:10:00 3.5 C 5.53 g/m*3 3.5 C 0 km/h
928 23-03-2019 05:15:00 3.3 C 5.4 g/m*3 3.3 C 0 km/h
929 23-03-2019 05:20:00 3.3 C 5.46 g/m*3 3.3 C 0 km/h
930 23-03-2019 05:25:00 3.3 C 5.46 g/m*3 3.3 C 0 km/h
931 23-03-2019 05:30:00 3.4 C 5.5 g/m*3 3.4 C 0 km/h
932 23-03-2019 05:35:00 3.4 C 5.5 g/m*3 3.4 C 0 km/h
933 23-03-2019 05:40:00 3.3 C 5.46 g/m*3 3.3 C 0 km/h
934 23-03-2019 05:45:00 3.1 C 5.33 g/m*3 3.1 C 0 km/h
935 23-03-2019 05:50:00 2.9 C 5.26 g/m*3 2.9 C 0 km/h
936 23-03-2019 05:55:00 2.8 C 5.28 g/m*3 2.8 C 0 km/h
937 23-03-2019 06:00:00 2.7 C 5.24 g/m*3 2.7 C 0 km/h
938 23-03-2019 06:05:00 2.6 C 5.21 g/m*3 2.6 C 0 km/h
939 23-03-2019 06:10:00 2.4 C 5.14 g/m*3 2.4 C 0 km/h
940 23-03-2019 06:15:00 2.4 C 5.2 g/m*3 2.4 C 0 km/h
941 23-03-2019 06:20:00 2.4 C 5.2 g/m*3 2.4 C 0 km/h
942 23-03-2019 06:25:00 2.4 C 5.2 g/m*3 2.4 C 0 km/h
943 23-03-2019 06:30:00 2.4 C 5.25 g/m*3 2.4 C 0 km/h
944 23-03-2019 06:35:00 2.6 C 5.32 g/m*3 2.6 C 0 km/h
945 23-03-2019 06:40:00 2.6 C 5.32 g/m*3 2.6 C 0 km/h
946 23-03-2019 06:45:00 2.7 C 5.36 g/m*3 2.7 C 0 km/h
947 23-03-2019 06:50:00 2.6 C 5.32 g/m*3 2.6 C 0 km/h
948 23-03-2019 06:55:00 2.5 C 5.23 g/m*3 2.5 C 0 km/h
949 23-03-2019 07:00:00 2.4 C 5.25 g/m*3 2.4 C 0 km/h
950 23-03-2019 07:05:00 2.4 C 5.25 g/m*3 2.4 C 0 km/h
Sensor: Nr:Datum:Temp:Abs-Feuchte:Windchill:Wind:
Aussen-T/F 951 23-03-2019 07:10:00 2.5 C 5.29 g/m*3 2.5 C 0 km/h
952 23-03-2019 07:15:00 2.7 C 5.42 g/m*3 2.7 C 0 km/h
953 23-03-2019 07:20:00 3.5 C 5.84 g/m*3 3.5 C 0 km/h
954 23-03-2019 07:25:00 4.2 C 6.19 g/m*3 4.2 C 0 km/h
955 23-03-2019 07:30:00 4.7 C 6.39 g/m*3 4.7 C 0 km/h
956 23-03-2019 07:35:00 4.9 C 6.41 g/m*3 4.9 C 0 km/h
957 23-03-2019 07:40:00 5 C 6.46 g/m*3 3.59 C 6.4 km/h
958 23-03-2019 07:45:00 5.2 C 6.54 g/m*3 2.34 C 12.9 km/h
959 23-03-2019 07:50:00 5.6 C 6.72 g/m*3 2.83 C 12.9 km/h
960 23-03-2019 07:55:00 5.7 C 6.76 g/m*3 5.7 C 4.8 km/h
961 23-03-2019 08:00:00 5.9 C 6.85 g/m*3 5.9 C 0 km/h
962 23-03-2019 08:05:00 6 C 6.9 g/m*3 4.75 C 6.4 km/h
963 23-03-2019 08:10:00 6.1 C 6.94 g/m*3 6.1 C 4.8 km/h
964 23-03-2019 08:15:00 6.1 C 6.94 g/m*3 6.1 C 0 km/h
965 23-03-2019 08:20:00 6.2 C 6.99 g/m*3 6.2 C 0 km/h
966 23-03-2019 08:25:00 6.2 C 6.99 g/m*3 6.2 C 4.8 km/h
967 23-03-2019 08:30:00 6.3 C 7.03 g/m*3 6.3 C 4.8 km/h
968 23-03-2019 08:35:00 6.3 C 7.03 g/m*3 3.96 C 11.3 km/h
969 23-03-2019 08:40:00 6.3 C 7.03 g/m*3 6.3 C 4.8 km/h
970 23-03-2019 08:45:00 6.4 C 7.08 g/m*3 6.4 C 0 km/h
971 23-03-2019 08:50:00 6.3 C 7.03 g/m*3 6.3 C 0 km/h
972 23-03-2019 08:55:00 6.4 C 7.08 g/m*3 6.4 C 0 km/h
973 23-03-2019 09:00:00 6.4 C 7.08 g/m*3 6.4 C 0 km/h
974 23-03-2019 09:05:00 6.5 C 7.12 g/m*3 6.5 C 0 km/h
975 23-03-2019 09:10:00 6.5 C 7.12 g/m*3 6.5 C 0 km/h
Sensor: Nr:Datum:Temp:Abs-Feuchte:Windchill:Wind:
Aussen-T/F 976 23-03-2019 09:15:00 6.6 C 7.17 g/m*3 6.6 C 0 km/h
977 23-03-2019 09:20:00 6.6 C 7.1 g/m*3 6.6 C 0 km/h
978 23-03-2019 09:25:00 6.6 C 7.1 g/m*3 6.6 C 0 km/h
979 23-03-2019 09:30:00 6.6 C 7.1 g/m*3 6.6 C 0 km/h
980 23-03-2019 09:35:00 6.7 C 7.14 g/m*3 6.7 C 0 km/h
981 23-03-2019 09:40:00 6.7 C 7.14 g/m*3 6.7 C 0 km/h
982 23-03-2019 09:45:00 6.7 C 7.14 g/m*3 6.7 C 0 km/h
983 23-03-2019 09:50:00 6.8 C 7.19 g/m*3 6.8 C 0 km/h
984 23-03-2019 09:55:00 6.9 C 7.24 g/m*3 6.9 C 0 km/h
985 23-03-2019 10:00:00 7 C 7.28 g/m*3 7 C 4.8 km/h
986 23-03-2019 10:05:00 7.1 C 7.33 g/m*3 5.58 C 8.1 km/h
987 23-03-2019 10:10:00 7.1 C 7.33 g/m*3 7.1 C 4.8 km/h
988 23-03-2019 10:15:00 7.1 C 7.33 g/m*3 6.02 C 6.4 km/h
989 23-03-2019 10:20:00 7.2 C 7.38 g/m*3 7.2 C 3.2 km/h
990 23-03-2019 10:25:00 7.2 C 7.38 g/m*3 6.13 C 6.4 km/h
991 23-03-2019 10:30:00 7.2 C 7.38 g/m*3 7.2 C 4.8 km/h
992 23-03-2019 10:35:00 7.2 C 7.38 g/m*3 7.2 C 4.8 km/h
993 23-03-2019 10:40:00 7.2 C 7.38 g/m*3 7.2 C 3.2 km/h
994 23-03-2019 10:45:00 7.3 C 7.35 g/m*3 6.25 C 6.4 km/h
995 23-03-2019 10:50:00 7.3 C 7.35 g/m*3 5.47 C 9.7 km/h
996 23-03-2019 10:55:00 7.3 C 7.35 g/m*3 6.25 C 6.4 km/h
997 23-03-2019 11:00:00 7.3 C 7.35 g/m*3 7.3 C 3.2 km/h
998 23-03-2019 11:05:00 7.3 C 7.35 g/m*3 6.25 C 6.4 km/h
999 23-03-2019 11:10:00 7.3 C 7.35 g/m*3 6.25 C 6.4 km/h
1000 23-03-2019 11:15:00 7.4 C 7.4 g/m*3 6.37 C 6.4 km/h
Sensor: Nr:Datum:Temp:Abs-Feuchte:Windchill:Wind:
Aussen-T/F 1001 23-03-2019 11:20:00 7.4 C 7.4 g/m*3 5.58 C 9.7 km/h
1002 23-03-2019 11:25:00 7.5 C 7.44 g/m*3 6.48 C 6.4 km/h
1003 23-03-2019 11:30:00 7.6 C 7.49 g/m*3 7.6 C 3.2 km/h
1004 23-03-2019 11:35:00 7.6 C 7.41 g/m*3 7.6 C 1.6 km/h
1005 23-03-2019 11:40:00 7.7 C 7.46 g/m*3 7.7 C 3.2 km/h
1006 23-03-2019 11:45:00 7.7 C 7.46 g/m*3 6.71 C 6.4 km/h
1007 23-03-2019 11:50:00 7.8 C 7.51 g/m*3 6.4 C 8.1 km/h
1008 23-03-2019 11:55:00 7.8 C 7.51 g/m*3 6.06 C 9.7 km/h
1009 23-03-2019 12:00:00 7.8 C 7.51 g/m*3 7.8 C 4.8 km/h
1010 23-03-2019 12:05:00 7.9 C 7.47 g/m*3 6.52 C 8.1 km/h
1011 23-03-2019 12:10:00 7.9 C 7.47 g/m*3 7.9 C 4.8 km/h
1012 23-03-2019 12:15:00 8 C 7.52 g/m*3 8 C 3.2 km/h
1013 23-03-2019 12:20:00 8.1 C 7.49 g/m*3 8.1 C 4.8 km/h
1014 23-03-2019 12:25:00 8.1 C 7.49 g/m*3 8.1 C 3.2 km/h
1015 23-03-2019 12:30:00 8.2 C 7.54 g/m*3 6.54 C 9.7 km/h
1016 23-03-2019 12:35:00 8.2 C 7.45 g/m*3 7.29 C 6.4 km/h
1017 23-03-2019 12:40:00 8.3 C 7.5 g/m*3 7.41 C 6.4 km/h
1018 23-03-2019 12:45:00 8.3 C 7.5 g/m*3 7.41 C 6.4 km/h
1019 23-03-2019 12:50:00 8.3 C 7.5 g/m*3 6.66 C 9.7 km/h
1020 23-03-2019 12:55:00 8.4 C 7.55 g/m*3 7.11 C 8.1 km/h
1021 23-03-2019 13:00:00 8.4 C 7.47 g/m*3 8.4 C 4.8 km/h
1022 23-03-2019 13:05:00 8.5 C 7.51 g/m*3 6.9 C 9.7 km/h
1023 23-03-2019 13:10:00 8.6 C 7.56 g/m*3 8.6 C 4.8 km/h
1024 23-03-2019 13:15:00 8.6 C 7.48 g/m*3 6.73 C 11.3 km/h
1025 23-03-2019 13:20:00 8.7 C 7.44 g/m*3 7.13 C 9.7 km/h
Sensor: Nr:Datum:Temp:Abs-Feuchte:Windchill:Wind:
Aussen-T/F 1026 23-03-2019 13:25:00 8.7 C 7.52 g/m*3 8.7 C 3.2 km/h
1027 23-03-2019 13:30:00 8.8 C 7.57 g/m*3 8.8 C 4.8 km/h
1028 23-03-2019 13:35:00 8.9 C 7.53 g/m*3 7.69 C 8.1 km/h
1029 23-03-2019 13:40:00 8.9 C 7.45 g/m*3 7.69 C 8.1 km/h
1030 23-03-2019 13:45:00 9 C 7.49 g/m*3 7.81 C 8.1 km/h
1031 23-03-2019 13:50:00 9.1 C 7.54 g/m*3 8.33 C 6.4 km/h
1032 23-03-2019 13:55:00 9.1 C 7.45 g/m*3 7.93 C 8.1 km/h
1033 23-03-2019 14:00:00 9.2 C 7.41 g/m*3 8.05 C 8.1 km/h
1034 23-03-2019 14:05:00 9.3 C 7.46 g/m*3 7.85 C 9.7 km/h
1035 23-03-2019 14:10:00 9.3 C 7.46 g/m*3 7.85 C 9.7 km/h
1036 23-03-2019 14:15:00 9.3 C 7.37 g/m*3 8.16 C 8.1 km/h
1037 23-03-2019 14:20:00 9.3 C 7.37 g/m*3 7.58 C 11.3 km/h
1038 23-03-2019 14:25:00 9.4 C 7.42 g/m*3 8.28 C 8.1 km/h
1039 23-03-2019 14:30:00 9.4 C 7.42 g/m*3 8.28 C 8.1 km/h
1040 23-03-2019 14:35:00 9.4 C 7.33 g/m*3 7.97 C 9.7 km/h
1041 23-03-2019 14:40:00 9.6 C 7.42 g/m*3 7.94 C 11.3 km/h
1042 23-03-2019 14:45:00 9.7 C 7.38 g/m*3 8.33 C 9.7 km/h
1043 23-03-2019 14:50:00 9.7 C 7.28 g/m*3 7.82 C 12.9 km/h
1044 23-03-2019 14:55:00 9.8 C 7.33 g/m*3 8.45 C 9.7 km/h
1045 23-03-2019 15:00:00 9.8 C 7.42 g/m*3 8.75 C 8.1 km/h
1046 23-03-2019 15:05:00 9.9 C 7.38 g/m*3 9.9 C 4.8 km/h
1047 23-03-2019 15:10:00 9.9 C 7.38 g/m*3 8.87 C 8.1 km/h
1048 23-03-2019 15:15:00 9.9 C 7.28 g/m*3 8.06 C 12.9 km/h
1049 23-03-2019 15:20:00 9.9 C 7.19 g/m*3 8.56 C 9.7 km/h
1050 23-03-2019 15:25:00 10.1 C 7.38 g/m*3 9.1 C 8.1 km/h
Sensor: Nr:Datum:Temp:Abs-Feuchte:Windchill:Wind:
Aussen-T/F 1051 23-03-2019 15:30:00 10.1 C 7.28 g/m*3 8.8 C 9.7 km/h
1052 23-03-2019 15:35:00 10.2 C 7.33 g/m*3 8.92 C 9.7 km/h
1053 23-03-2019 15:40:00 10.3 C 7.28 g/m*3 9.04 C 9.7 km/h
1054 23-03-2019 15:45:00 10.3 C 7.28 g/m*3 9.04 C 9.7 km/h
1055 23-03-2019 15:50:00 10.3 C 7.37 g/m*3 9.04 C 9.7 km/h
1056 23-03-2019 15:55:00 10.3 C 7.28 g/m*3 9.34 C 8.1 km/h
1057 23-03-2019 16:00:00 10.3 C 7.18 g/m*3 9.04 C 9.7 km/h
1058 23-03-2019 16:05:00 10.3 C 7.18 g/m*3 8.34 C 14.5 km/h
1059 23-03-2019 16:10:00 10.3 C 7.18 g/m*3 9.34 C 8.1 km/h
1060 23-03-2019 16:15:00 10.4 C 7.23 g/m*3 9.46 C 8.1 km/h
1061 23-03-2019 16:20:00 10.3 C 7.18 g/m*3 9.04 C 9.7 km/h
1062 23-03-2019 16:25:00 10.4 C 7.23 g/m*3 9.16 C 9.7 km/h
1063 23-03-2019 16:30:00 10.4 C 7.23 g/m*3 9.46 C 8.1 km/h
1064 23-03-2019 16:35:00 10.5 C 7.27 g/m*3 9.57 C 8.1 km/h
1065 23-03-2019 16:40:00 10.5 C 7.18 g/m*3 9.28 C 9.7 km/h
1066 23-03-2019 16:45:00 10.6 C 7.22 g/m*3 9.4 C 9.7 km/h
1067 23-03-2019 16:50:00 10.6 C 7.22 g/m*3 10.6 C 4.8 km/h
1068 23-03-2019 16:55:00 10.5 C 7.18 g/m*3 9.28 C 9.7 km/h
1069 23-03-2019 17:00:00 10.5 C 7.18 g/m*3 9.02 C 11.3 km/h
1070 23-03-2019 17:05:00 10.5 C 7.27 g/m*3 9.95 C 6.4 km/h
1071 23-03-2019 17:10:00 10.6 C 7.22 g/m*3 10.06 C 6.4 km/h
1072 23-03-2019 17:15:00 10.7 C 7.27 g/m*3 10.7 C 4.8 km/h
1073 23-03-2019 17:20:00 10.7 C 7.17 g/m*3 8.48 C 17.7 km/h
1074 23-03-2019 17:25:00 10.6 C 7.22 g/m*3 9.4 C 9.7 km/h
1075 23-03-2019 17:30:00 10.6 C 7.22 g/m*3 9.69 C 8.1 km/h
Sensor: Nr:Datum:Temp:Abs-Feuchte:Windchill:Wind:
Aussen-T/F 1076 23-03-2019 17:35:00 10.4 C 7.13 g/m*3 9.83 C 6.4 km/h
1077 23-03-2019 17:40:00 10.3 C 7.09 g/m*3 9.34 C 8.1 km/h
1078 23-03-2019 17:45:00 10.1 C 7 g/m*3 10.1 C 3.2 km/h
1079 23-03-2019 17:50:00 10.1 C 7.09 g/m*3 10.1 C 3.2 km/h
1080 23-03-2019 17:55:00 10 C 7.05 g/m*3 10 C 3.2 km/h
1081 23-03-2019 18:00:00 10.1 C 7.09 g/m*3 10.1 C 1.6 km/h
1082 23-03-2019 18:05:00 10 C 7.05 g/m*3 10 C 3.2 km/h
1083 23-03-2019 18:10:00 10 C 7.05 g/m*3 10 C 0 km/h
1084 23-03-2019 18:15:00 9.9 C 7 g/m*3 9.9 C 0 km/h
1085 23-03-2019 18:20:00 9.7 C 7.01 g/m*3 9.7 C 0 km/h
1086 23-03-2019 18:25:00 9.6 C 6.96 g/m*3 9.6 C 1.6 km/h
1087 23-03-2019 18:30:00 9.3 C 6.92 g/m*3 9.3 C 3.2 km/h
1088 23-03-2019 18:35:00 8.9 C 6.83 g/m*3 8.9 C 3.2 km/h
1089 23-03-2019 18:40:00 8.6 C 6.79 g/m*3 8.6 C 3.2 km/h
1090 23-03-2019 18:45:00 8.2 C 6.7 g/m*3 8.2 C 3.2 km/h
1091 23-03-2019 18:50:00 8 C 6.7 g/m*3 8 C 4.8 km/h
1092 23-03-2019 18:55:00 7.8 C 6.69 g/m*3 7.8 C 4.8 km/h
1093 23-03-2019 19:00:00 7.6 C 6.61 g/m*3 7.6 C 4.8 km/h
1094 23-03-2019 19:05:00 7.4 C 6.6 g/m*3 7.4 C 4.8 km/h
1095 23-03-2019 19:10:00 7.2 C 6.59 g/m*3 7.2 C 4.8 km/h
1096 23-03-2019 19:15:00 7.1 C 6.55 g/m*3 7.1 C 3.2 km/h
1097 23-03-2019 19:20:00 6.9 C 6.54 g/m*3 6.9 C 3.2 km/h
1098 23-03-2019 19:25:00 6.8 C 6.5 g/m*3 6.8 C 3.2 km/h
1099 23-03-2019 19:30:00 6.7 C 6.46 g/m*3 6.7 C 3.2 km/h
1100 23-03-2019 19:35:00 6.6 C 6.49 g/m*3 6.6 C 3.2 km/h
Sensor: Nr:Datum:Temp:Abs-Feuchte:Windchill:Wind:
Aussen-T/F 1101 23-03-2019 19:40:00 6.5 C 6.45 g/m*3 6.5 C 3.2 km/h
1102 23-03-2019 19:45:00 6.4 C 6.48 g/m*3 6.4 C 3.2 km/h
1103 23-03-2019 19:50:00 6.3 C 6.44 g/m*3 6.3 C 0 km/h
1104 23-03-2019 19:55:00 6.2 C 6.4 g/m*3 6.2 C 1.6 km/h
1105 23-03-2019 20:00:00 6.1 C 6.36 g/m*3 6.1 C 1.6 km/h
1106 23-03-2019 20:05:00 5.9 C 6.27 g/m*3 5.9 C 0 km/h
1107 23-03-2019 20:10:00 5.7 C 6.26 g/m*3 5.7 C 0 km/h
1108 23-03-2019 20:15:00 5.7 C 6.33 g/m*3 5.7 C 0 km/h
1109 23-03-2019 20:20:00 5.6 C 6.22 g/m*3 5.6 C 0 km/h
1110 23-03-2019 20:25:00 5.3 C 6.1 g/m*3 5.3 C 0 km/h
1111 23-03-2019 20:30:00 5.2 C 6.13 g/m*3 5.2 C 0 km/h
1112 23-03-2019 20:35:00 5.1 C 6.09 g/m*3 5.1 C 0 km/h
1113 23-03-2019 20:40:00 5.1 C 6.16 g/m*3 5.1 C 0 km/h
1114 23-03-2019 20:45:00 5.1 C 6.16 g/m*3 5.1 C 0 km/h
1115 23-03-2019 20:50:00 5 C 6.12 g/m*3 5 C 0 km/h
1116 23-03-2019 20:55:00 4.8 C 6.04 g/m*3 4.8 C 0 km/h
1117 23-03-2019 21:00:00 4.7 C 6 g/m*3 4.7 C 0 km/h
1118 23-03-2019 21:05:00 4.6 C 5.96 g/m*3 4.6 C 0 km/h
1119 23-03-2019 21:10:00 4.5 C 5.98 g/m*3 4.5 C 0 km/h
1120 23-03-2019 21:15:00 4.5 C 5.98 g/m*3 4.5 C 0 km/h
1121 23-03-2019 21:20:00 4.5 C 6.05 g/m*3 4.5 C 0 km/h
1122 23-03-2019 21:25:00 4.4 C 6.01 g/m*3 4.4 C 0 km/h
1123 23-03-2019 21:30:00 4.3 C 5.9 g/m*3 4.3 C 0 km/h
1124 23-03-2019 21:35:00 4.2 C 5.86 g/m*3 4.2 C 0 km/h
1125 23-03-2019 21:40:00 4.1 C 5.82 g/m*3 4.1 C 0 km/h
Sensor: Nr:Datum:Temp:Abs-Feuchte:Windchill:Wind:
Aussen-T/F 1126 23-03-2019 21:45:00 4.1 C 5.89 g/m*3 4.1 C 0 km/h
1127 23-03-2019 21:50:00 4.1 C 5.89 g/m*3 4.1 C 0 km/h
1128 23-03-2019 21:55:00 4 C 5.85 g/m*3 4 C 0 km/h
1129 23-03-2019 22:00:00 3.9 C 5.81 g/m*3 3.9 C 0 km/h
1130 23-03-2019 22:05:00 3.9 C 5.81 g/m*3 3.9 C 0 km/h
1131 23-03-2019 22:10:00 3.9 C 5.87 g/m*3 3.9 C 0 km/h
1132 23-03-2019 22:15:00 3.8 C 5.83 g/m*3 3.8 C 0 km/h
1133 23-03-2019 22:20:00 3.6 C 5.69 g/m*3 3.6 C 0 km/h
1134 23-03-2019 22:25:00 3.6 C 5.76 g/m*3 3.6 C 0 km/h
1135 23-03-2019 22:30:00 3.4 C 5.68 g/m*3 3.4 C 0 km/h
1136 23-03-2019 22:35:00 3.3 C 5.64 g/m*3 3.3 C 0 km/h
1137 23-03-2019 22:40:00 3.3 C 5.64 g/m*3 3.3 C 0 km/h
1138 23-03-2019 22:45:00 3.3 C 5.64 g/m*3 3.3 C 0 km/h
1139 23-03-2019 22:50:00 3.3 C 5.7 g/m*3 3.3 C 0 km/h
1140 23-03-2019 22:55:00 3.4 C 5.74 g/m*3 3.4 C 0 km/h
1141 23-03-2019 23:00:00 3.3 C 5.7 g/m*3 3.3 C 0 km/h
1142 23-03-2019 23:05:00 3.3 C 5.7 g/m*3 3.3 C 0 km/h
1143 23-03-2019 23:10:00 3.2 C 5.66 g/m*3 3.2 C 0 km/h
1144 23-03-2019 23:15:00 3.2 C 5.66 g/m*3 3.2 C 0 km/h
1145 23-03-2019 23:20:00 3.2 C 5.66 g/m*3 3.2 C 0 km/h
1146 23-03-2019 23:25:00 3.2 C 5.66 g/m*3 3.2 C 0 km/h
1147 23-03-2019 23:30:00 3.1 C 5.63 g/m*3 3.1 C 0 km/h
1148 23-03-2019 23:35:00 3.1 C 5.63 g/m*3 3.1 C 0 km/h
1149 23-03-2019 23:40:00 2.9 C 5.55 g/m*3 2.9 C 0 km/h
1150 23-03-2019 23:45:00 2.8 C 5.51 g/m*3 2.8 C 0 km/h
Sensor: Nr:Datum:Temp:Abs-Feuchte:Windchill:Wind:
Aussen-T/F 1151 23-03-2019 23:50:00 2.8 C 5.51 g/m*3 2.8 C 0 km/h
1152 23-03-2019 23:55:00 2.8 C 5.51 g/m*3 2.8 C 0 km/h
1153 24-03-2019 00:00:00 2.7 C 5.48 g/m*3 2.7 C 0 km/h
1154 24-03-2019 00:05:00 2.6 C 5.44 g/m*3 2.6 C 0 km/h
1155 24-03-2019 00:10:00 2.4 C 5.37 g/m*3 2.4 C 0 km/h
1156 24-03-2019 00:15:00 2.3 C 5.33 g/m*3 2.3 C 0 km/h
1157 24-03-2019 00:20:00 2.4 C 5.37 g/m*3 2.4 C 0 km/h
1158 24-03-2019 00:25:00 2.3 C 5.33 g/m*3 2.3 C 0 km/h
1159 24-03-2019 00:30:00 2.3 C 5.33 g/m*3 2.3 C 0 km/h
1160 24-03-2019 00:35:00 2.2 C 5.29 g/m*3 2.2 C 0 km/h
1161 24-03-2019 00:40:00 2.2 C 5.35 g/m*3 2.2 C 0 km/h
1162 24-03-2019 00:45:00 2.4 C 5.42 g/m*3 2.4 C 0 km/h
1163 24-03-2019 00:50:00 2.6 C 5.5 g/m*3 2.6 C 0 km/h
1164 24-03-2019 00:55:00 2.4 C 5.42 g/m*3 2.4 C 0 km/h
1165 24-03-2019 01:00:00 2.4 C 5.42 g/m*3 2.4 C 0 km/h
1166 24-03-2019 01:05:00 2.3 C 5.39 g/m*3 2.3 C 0 km/h
1167 24-03-2019 01:10:00 2.2 C 5.35 g/m*3 2.2 C 0 km/h
1168 24-03-2019 01:15:00 2.1 C 5.26 g/m*3 2.1 C 0 km/h
1169 24-03-2019 01:20:00 1.9 C 5.19 g/m*3 1.9 C 0 km/h
1170 24-03-2019 01:25:00 1.8 C 5.21 g/m*3 1.8 C 0 km/h
1171 24-03-2019 01:30:00 1.8 C 5.21 g/m*3 1.8 C 0 km/h
1172 24-03-2019 01:35:00 1.7 C 5.17 g/m*3 1.7 C 0 km/h
1173 24-03-2019 01:40:00 1.6 C 5.14 g/m*3 1.6 C 0 km/h
1174 24-03-2019 01:45:00 1.7 C 5.17 g/m*3 1.7 C 0 km/h
1175 24-03-2019 01:50:00 1.7 C 5.17 g/m*3 1.7 C 0 km/h
Sensor: Nr:Datum:Temp:Abs-Feuchte:Windchill:Wind:
Aussen-T/F 1176 24-03-2019 01:55:00 1.6 C 5.14 g/m*3 1.6 C 0 km/h
1177 24-03-2019 02:00:00 1.4 C 5.07 g/m*3 1.4 C 0 km/h
1178 24-03-2019 02:05:00 1.5 C 5.1 g/m*3 1.5 C 0 km/h
1179 24-03-2019 02:10:00 1.6 C 5.14 g/m*3 1.6 C 0 km/h
1180 24-03-2019 02:15:00 1.7 C 5.17 g/m*3 1.7 C 0 km/h
1181 24-03-2019 02:20:00 1.7 C 5.17 g/m*3 1.7 C 0 km/h
1182 24-03-2019 02:25:00 1.5 C 5.1 g/m*3 1.5 C 0 km/h
1183 24-03-2019 02:30:00 1.4 C 5.07 g/m*3 1.4 C 0 km/h
1184 24-03-2019 02:35:00 1.3 C 5.03 g/m*3 1.3 C 0 km/h
1185 24-03-2019 02:40:00 1.2 C 5 g/m*3 1.2 C 0 km/h
1186 24-03-2019 02:45:00 1.3 C 5.03 g/m*3 1.3 C 0 km/h
1187 24-03-2019 02:50:00 1.3 C 5.03 g/m*3 1.3 C 0 km/h
1188 24-03-2019 02:55:00 1.2 C 5 g/m*3 1.2 C 0 km/h
1189 24-03-2019 03:00:00 1.1 C 4.96 g/m*3 1.1 C 0 km/h
1190 24-03-2019 03:05:00 1.2 C 5 g/m*3 1.2 C 0 km/h
1191 24-03-2019 03:10:00 1.2 C 5 g/m*3 1.2 C 0 km/h
1192 24-03-2019 03:15:00 1.1 C 4.96 g/m*3 1.1 C 0 km/h
1193 24-03-2019 03:20:00 1 C 4.93 g/m*3 1 C 0 km/h
1194 24-03-2019 03:25:00 1 C 4.93 g/m*3 1 C 0 km/h
1195 24-03-2019 03:30:00 0.9 C 4.9 g/m*3 0.9 C 0 km/h
1196 24-03-2019 03:35:00 1 C 4.93 g/m*3 1 C 0 km/h
1197 24-03-2019 03:40:00 0.9 C 4.9 g/m*3 0.9 C 0 km/h
1198 24-03-2019 03:45:00 0.8 C 4.86 g/m*3 0.8 C 0 km/h
1199 24-03-2019 03:50:00 0.7 C 4.83 g/m*3 0.7 C 0 km/h
1200 24-03-2019 03:55:00 0.7 C 4.83 g/m*3 0.7 C 0 km/h
Sensor: Nr:Datum:Temp:Abs-Feuchte:Windchill:Wind:
Aussen-T/F 1201 24-03-2019 04:00:00 0.6 C 4.8 g/m*3 0.6 C 0 km/h
1202 24-03-2019 04:05:00 0.6 C 4.8 g/m*3 0.6 C 0 km/h
1203 24-03-2019 04:10:00 0.6 C 4.85 g/m*3 0.6 C 0 km/h
1204 24-03-2019 04:15:00 0.7 C 4.88 g/m*3 0.7 C 0 km/h
1205 24-03-2019 04:20:00 0.8 C 4.91 g/m*3 0.8 C 0 km/h
1206 24-03-2019 04:25:00 0.9 C 4.95 g/m*3 0.9 C 0 km/h
1207 24-03-2019 04:30:00 0.9 C 4.95 g/m*3 0.9 C 0 km/h
1208 24-03-2019 04:35:00 0.9 C 4.95 g/m*3 0.9 C 0 km/h
1209 24-03-2019 04:40:00 1 C 4.98 g/m*3 1 C 0 km/h
1210 24-03-2019 04:45:00 1.1 C 5.02 g/m*3 1.1 C 0 km/h
1211 24-03-2019 04:50:00 1.2 C 5.05 g/m*3 1.2 C 0 km/h
1212 24-03-2019 04:55:00 1.4 C 5.12 g/m*3 1.4 C 0 km/h
1213 24-03-2019 05:00:00 1.5 C 5.16 g/m*3 1.5 C 0 km/h
1214 24-03-2019 05:05:00 1.6 C 5.19 g/m*3 1.6 C 0 km/h
1215 24-03-2019 05:10:00 1.6 C 5.19 g/m*3 1.6 C 0 km/h
1216 24-03-2019 05:15:00 1.7 C 5.23 g/m*3 1.7 C 0 km/h
1217 24-03-2019 05:20:00 1.8 C 5.26 g/m*3 1.8 C 0 km/h
1218 24-03-2019 05:25:00 1.8 C 5.26 g/m*3 1.8 C 0 km/h
1219 24-03-2019 05:30:00 1.9 C 5.3 g/m*3 1.9 C 1.6 km/h
1220 24-03-2019 05:35:00 1.9 C 5.3 g/m*3 1.9 C 1.6 km/h
1221 24-03-2019 07:05:00 2.6 C 5.56 g/m*3 2.6 C 0 km/h
1222 24-03-2019 07:10:00 2.6 C 5.56 g/m*3 2.6 C 0 km/h
1223 24-03-2019 07:15:00 2.7 C 5.59 g/m*3 2.7 C 1.6 km/h
1224 24-03-2019 07:20:00 2.7 C 5.59 g/m*3 2.7 C 0 km/h
1225 24-03-2019 07:25:00 2.7 C 5.59 g/m*3 2.7 C 0 km/h
Sensor: Nr:Datum:Temp:Abs-Feuchte:Windchill:Wind:
Aussen-T/F 1226 24-03-2019 07:30:00 2.7 C 5.59 g/m*3 2.7 C 0 km/h
1227 24-03-2019 07:35:00 2.8 C 5.63 g/m*3 2.8 C 0 km/h
1228 24-03-2019 07:40:00 2.8 C 5.63 g/m*3 2.8 C 0 km/h
1229 24-03-2019 07:45:00 2.9 C 5.67 g/m*3 2.9 C 0 km/h
1230 24-03-2019 07:50:00 3 C 5.71 g/m*3 3 C 1.6 km/h
1231 24-03-2019 07:55:00 3.1 C 5.75 g/m*3 3.1 C 0 km/h
1232 24-03-2019 08:00:00 3.2 C 5.85 g/m*3 3.2 C 0 km/h
1233 24-03-2019 08:05:00 3.3 C 5.88 g/m*3 3.3 C 0 km/h
1234 24-03-2019 08:10:00 3.3 C 5.82 g/m*3 3.3 C 0 km/h
1235 24-03-2019 08:15:00 3.4 C 5.92 g/m*3 3.4 C 0 km/h
1236 24-03-2019 08:20:00 3.5 C 5.96 g/m*3 3.5 C 0 km/h
1237 24-03-2019 08:25:00 3.6 C 6 g/m*3 3.6 C 0 km/h
1238 24-03-2019 08:30:00 3.6 C 5.94 g/m*3 3.6 C 0 km/h
1239 24-03-2019 08:35:00 3.7 C 5.98 g/m*3 3.7 C 0 km/h
1240 24-03-2019 08:40:00 3.9 C 6.13 g/m*3 3.9 C 1.6 km/h
1241 24-03-2019 08:45:00 4.1 C 6.21 g/m*3 4.1 C 0 km/h
1242 24-03-2019 08:50:00 4.2 C 6.25 g/m*3 4.2 C 0 km/h
1243 24-03-2019 08:55:00 4.2 C 6.25 g/m*3 4.2 C 0 km/h
1244 24-03-2019 09:00:00 4.3 C 6.23 g/m*3 4.3 C 0 km/h
1245 24-03-2019 09:05:00 4.3 C 6.23 g/m*3 4.3 C 0 km/h
1246 24-03-2019 09:10:00 4.5 C 6.31 g/m*3 4.5 C 1.6 km/h
1247 24-03-2019 09:15:00 4.6 C 6.35 g/m*3 4.6 C 3.2 km/h
1248 24-03-2019 09:20:00 4.7 C 6.39 g/m*3 4.7 C 3.2 km/h
1249 24-03-2019 09:25:00 4.8 C 6.44 g/m*3 4.8 C 3.2 km/h
1250 24-03-2019 09:30:00 4.8 C 6.44 g/m*3 4.8 C 3.2 km/h
Sensor: Nr:Datum:Temp:Abs-Feuchte:Windchill:Wind:
Aussen-T/F 1251 24-03-2019 09:35:00 4.9 C 6.48 g/m*3 4.9 C 4.8 km/h
1252 24-03-2019 09:40:00 5.1 C 6.5 g/m*3 5.1 C 4.8 km/h
1253 24-03-2019 09:45:00 5.2 C 6.54 g/m*3 5.2 C 3.2 km/h
1254 24-03-2019 09:50:00 5.4 C 6.63 g/m*3 5.4 C 0 km/h
1255 24-03-2019 09:55:00 5.6 C 6.72 g/m*3 5.6 C 3.2 km/h
1256 24-03-2019 10:00:00 5.7 C 6.76 g/m*3 5.7 C 0 km/h
1257 24-03-2019 10:05:00 5.9 C 6.85 g/m*3 5.9 C 4.8 km/h
1258 24-03-2019 10:10:00 6.2 C 6.99 g/m*3 6.2 C 3.2 km/h
1259 24-03-2019 10:15:00 6.3 C 6.96 g/m*3 6.3 C 3.2 km/h
1260 24-03-2019 10:20:00 6.5 C 6.97 g/m*3 6.5 C 4.8 km/h
1261 24-03-2019 10:25:00 6.8 C 7.11 g/m*3 6.8 C 3.2 km/h
1262 24-03-2019 10:30:00 6.9 C 7.08 g/m*3 6.9 C 3.2 km/h
1263 24-03-2019 10:35:00 7.2 C 7.22 g/m*3 7.2 C 3.2 km/h
1264 24-03-2019 10:40:00 7.4 C 7.24 g/m*3 7.4 C 4.8 km/h
1265 24-03-2019 10:45:00 7.7 C 7.3 g/m*3 7.7 C 3.2 km/h
1266 24-03-2019 10:50:00 7.8 C 7.35 g/m*3 7.8 C 4.8 km/h
1267 24-03-2019 10:55:00 8.1 C 7.41 g/m*3 8.1 C 3.2 km/h
1268 24-03-2019 11:00:00 8.3 C 7.5 g/m*3 8.3 C 4.8 km/h
1269 24-03-2019 11:05:00 8.7 C 7.7 g/m*3 8.7 C 3.2 km/h
1270 24-03-2019 11:10:00 8.9 C 7.71 g/m*3 8.9 C 4.8 km/h
1271 24-03-2019 11:15:00 9.1 C 7.72 g/m*3 9.1 C 3.2 km/h
1272 24-03-2019 11:20:00 9.2 C 7.68 g/m*3 9.2 C 3.2 km/h
1273 24-03-2019 11:25:00 9.4 C 7.78 g/m*3 9.4 C 3.2 km/h
1274 24-03-2019 11:30:00 9.6 C 7.79 g/m*3 9.6 C 1.6 km/h
1275 24-03-2019 11:35:00 9.7 C 7.84 g/m*3 9.7 C 4.8 km/h
Sensor: Nr:Datum:Temp:Abs-Feuchte:Windchill:Wind:
Aussen-T/F 1276 24-03-2019 11:40:00 10 C 7.89 g/m*3 8.99 C 8.1 km/h
1277 24-03-2019 11:45:00 10.3 C 7.95 g/m*3 10.3 C 3.2 km/h
1278 24-03-2019 11:50:00 10.5 C 7.86 g/m*3 9.95 C 6.4 km/h
1279 24-03-2019 11:55:00 10.8 C 8.11 g/m*3 9.38 C 11.3 km/h
1280 24-03-2019 12:00:00 11.2 C 8.11 g/m*3 11.2 C 11.3 km/h
1281 24-03-2019 12:05:00 11.3 C 8.06 g/m*3 11.3 C 4.8 km/h
1282 24-03-2019 12:10:00 11.4 C 8.11 g/m*3 11.4 C 9.7 km/h
1283 24-03-2019 12:15:00 11.6 C 8.11 g/m*3 11.6 C 6.4 km/h
1284 24-03-2019 12:20:00 11.7 C 8.05 g/m*3 11.7 C 8.1 km/h
1285 24-03-2019 12:25:00 11.8 C 8 g/m*3 11.8 C 4.8 km/h
1286 24-03-2019 12:30:00 11.9 C 8.05 g/m*3 11.9 C 3.2 km/h
1287 24-03-2019 12:35:00 12.1 C 8.15 g/m*3 12.1 C 8.1 km/h
1288 24-03-2019 12:40:00 12.1 C 8.15 g/m*3 12.1 C 11.3 km/h
1289 24-03-2019 12:45:00 12.1 C 7.94 g/m*3 12.1 C 12.9 km/h
1290 24-03-2019 12:50:00 12 C 7.99 g/m*3 12 C 16.1 km/h
1291 24-03-2019 12:55:00 11.7 C 8.05 g/m*3 11.7 C 17.7 km/h
1292 24-03-2019 13:00:00 11.4 C 8.01 g/m*3 11.4 C 17.7 km/h
1293 24-03-2019 13:05:00 11.2 C 8.01 g/m*3 11.2 C 16.1 km/h
1294 24-03-2019 13:10:00 11 C 8.11 g/m*3 9.4 C 12.9 km/h
1295 24-03-2019 13:15:00 10.9 C 8.06 g/m*3 9.28 C 12.9 km/h
1296 24-03-2019 13:20:00 10.8 C 8.11 g/m*3 8.96 C 14.5 km/h
1297 24-03-2019 13:25:00 10.7 C 8.05 g/m*3 8.65 C 16.1 km/h
1298 24-03-2019 13:30:00 10.7 C 7.96 g/m*3 9.26 C 11.3 km/h
1299 24-03-2019 13:35:00 10.7 C 8.05 g/m*3 8.84 C 14.5 km/h
1300 24-03-2019 13:40:00 10.7 C 8.05 g/m*3 8.65 C 16.1 km/h
Sensor: Nr:Datum:Temp:Abs-Feuchte:Windchill:Wind:
Aussen-T/F 1301 24-03-2019 13:45:00 10.8 C 8.11 g/m*3 9.64 C 9.7 km/h
1302 24-03-2019 13:50:00 10.8 C 8.2 g/m*3 9.93 C 8.1 km/h
1303 24-03-2019 13:55:00 10.9 C 8.16 g/m*3 9.08 C 14.5 km/h
1304 24-03-2019 14:00:00 10.7 C 8.05 g/m*3 9.52 C 9.7 km/h
1305 24-03-2019 14:05:00 10.6 C 8.1 g/m*3 9.69 C 8.1 km/h
1306 24-03-2019 14:10:00 10.5 C 8.15 g/m*3 9.95 C 6.4 km/h
1307 24-03-2019 14:15:00 10.6 C 8.2 g/m*3 10.6 C 1.6 km/h
1308 24-03-2019 14:20:00 10.6 C 8.2 g/m*3 10.6 C 4.8 km/h
1309 24-03-2019 14:25:00 10.6 C 8 g/m*3 9.4 C 9.7 km/h
1310 24-03-2019 14:30:00 10.6 C 8.1 g/m*3 10.06 C 6.4 km/h
1311 24-03-2019 14:35:00 10.7 C 8.15 g/m*3 10.18 C 6.4 km/h
1312 24-03-2019 14:40:00 10.7 C 8.05 g/m*3 10.7 C 4.8 km/h
1313 24-03-2019 14:45:00 10.7 C 8.05 g/m*3 10.18 C 6.4 km/h
1314 24-03-2019 14:50:00 10.7 C 7.96 g/m*3 9.52 C 9.7 km/h
1315 24-03-2019 14:55:00 10.7 C 7.96 g/m*3 9.26 C 11.3 km/h
1316 24-03-2019 15:00:00 10.7 C 7.96 g/m*3 8.84 C 14.5 km/h
1317 24-03-2019 15:05:00 10.7 C 7.96 g/m*3 9.81 C 8.1 km/h
1318 24-03-2019 15:10:00 10.7 C 7.86 g/m*3 9.52 C 9.7 km/h
1319 24-03-2019 15:15:00 10.8 C 7.91 g/m*3 9.93 C 8.1 km/h
1320 24-03-2019 15:20:00 10.8 C 7.81 g/m*3 9.38 C 11.3 km/h
1321 24-03-2019 15:25:00 10.9 C 7.86 g/m*3 10.41 C 6.4 km/h
1322 24-03-2019 15:30:00 11.1 C 7.86 g/m*3 11.1 C 8.1 km/h
1323 24-03-2019 15:35:00 11.2 C 7.91 g/m*3 11.2 C 4.8 km/h
1324 24-03-2019 15:40:00 11.4 C 7.9 g/m*3 11.4 C 8.1 km/h
1325 24-03-2019 15:45:00 11.6 C 7.9 g/m*3 11.6 C 6.4 km/h
Sensor: Nr:Datum:Temp:Abs-Feuchte:Windchill:Wind:
Aussen-T/F 1326 24-03-2019 15:50:00 11.6 C 7.69 g/m*3 11.6 C 11.3 km/h
1327 24-03-2019 15:55:00 11.6 C 7.9 g/m*3 11.6 C 8.1 km/h
1328 24-03-2019 16:00:00 11.6 C 7.8 g/m*3 11.6 C 9.7 km/h
1329 24-03-2019 16:05:00 11.8 C 7.89 g/m*3 11.8 C 6.4 km/h
1330 24-03-2019 16:10:00 12 C 7.99 g/m*3 12 C 8.1 km/h
1331 24-03-2019 16:15:00 12.2 C 7.99 g/m*3 12.2 C 6.4 km/h
1332 24-03-2019 16:20:00 12.3 C 7.82 g/m*3 12.3 C 9.7 km/h
1333 24-03-2019 16:25:00 12.1 C 7.72 g/m*3 12.1 C 12.9 km/h
1334 24-03-2019 16:30:00 12.1 C 7.72 g/m*3 12.1 C 8.1 km/h
1335 24-03-2019 16:35:00 12.2 C 7.66 g/m*3 12.2 C 4.8 km/h
1336 24-03-2019 16:40:00 12.2 C 7.55 g/m*3 12.2 C 9.7 km/h
1337 24-03-2019 16:45:00 12.1 C 7.4 g/m*3 12.1 C 14.5 km/h
1338 24-03-2019 16:50:00 12 C 7.14 g/m*3 12 C 14.5 km/h
1339 24-03-2019 16:55:00 11.8 C 7.16 g/m*3 11.8 C 12.9 km/h
1340 24-03-2019 17:00:00 11.7 C 7.11 g/m*3 11.7 C 8.1 km/h
1341 24-03-2019 17:05:00 11.8 C 7.26 g/m*3 11.8 C 4.8 km/h
1342 24-03-2019 17:10:00 11.9 C 7.2 g/m*3 11.9 C 9.7 km/h
1343 24-03-2019 17:15:00 12.1 C 7.18 g/m*3 12.1 C 14.5 km/h
1344 24-03-2019 17:20:00 12.3 C 7.17 g/m*3 12.3 C 9.7 km/h
1345 24-03-2019 17:25:00 12.5 C 7.15 g/m*3 12.5 C 8.1 km/h
1346 24-03-2019 17:30:00 12.6 C 7.08 g/m*3 12.6 C 16.1 km/h
1347 24-03-2019 17:35:00 12.6 C 7.08 g/m*3 12.6 C 14.5 km/h
1348 24-03-2019 17:40:00 12.6 C 7.08 g/m*3 12.6 C 12.9 km/h
1349 24-03-2019 17:45:00 12.5 C 6.82 g/m*3 12.5 C 9.7 km/h
1350 24-03-2019 17:50:00 12.4 C 6.77 g/m*3 12.4 C 9.7 km/h
Sensor: Nr:Datum:Temp:Abs-Feuchte:Windchill:Wind:
Aussen-T/F 1351 24-03-2019 17:55:00 12.4 C 6.66 g/m*3 12.4 C 9.7 km/h
1352 24-03-2019 18:00:00 12.2 C 6.58 g/m*3 12.2 C 14.5 km/h
1353 24-03-2019 18:05:00 12.1 C 6.54 g/m*3 12.1 C 12.9 km/h
1354 24-03-2019 18:10:00 11.9 C 6.57 g/m*3 11.9 C 8.1 km/h
1355 24-03-2019 18:15:00 11.9 C 6.57 g/m*3 11.9 C 6.4 km/h
1356 24-03-2019 18:20:00 11.8 C 6.63 g/m*3 11.8 C 3.2 km/h
1357 24-03-2019 18:25:00 11.7 C 6.48 g/m*3 11.7 C 9.7 km/h
1358 24-03-2019 18:30:00 11.4 C 6.36 g/m*3 11.4 C 9.7 km/h
1359 24-03-2019 18:35:00 11.1 C 6.25 g/m*3 11.1 C 6.4 km/h
1360 24-03-2019 18:40:00 10.8 C 6.23 g/m*3 9.93 C 8.1 km/h
1361 24-03-2019 18:45:00 10.5 C 6.11 g/m*3 9.02 C 11.3 km/h
1362 24-03-2019 18:50:00 10.3 C 6.13 g/m*3 10.3 C 3.2 km/h
1363 24-03-2019 18:55:00 10 C 6.01 g/m*3 8.68 C 9.7 km/h
1364 24-03-2019 19:00:00 9.8 C 5.94 g/m*3 9.14 C 6.4 km/h
1365 24-03-2019 19:05:00 9.6 C 5.95 g/m*3 8.21 C 9.7 km/h
1366 24-03-2019 19:10:00 9.4 C 5.88 g/m*3 7.97 C 9.7 km/h
1367 24-03-2019 19:15:00 9.3 C 5.75 g/m*3 9.3 C 4.8 km/h
1368 24-03-2019 19:20:00 9.2 C 5.8 g/m*3 9.2 C 4.8 km/h
1369 24-03-2019 19:25:00 8.9 C 5.69 g/m*3 7.69 C 8.1 km/h
1370 24-03-2019 19:30:00 8.8 C 5.74 g/m*3 7.25 C 9.7 km/h
1371 24-03-2019 19:35:00 8.8 C 5.74 g/m*3 7.98 C 6.4 km/h
1372 24-03-2019 19:40:00 8.9 C 5.69 g/m*3 7.37 C 9.7 km/h
1373 24-03-2019 19:45:00 8.8 C 5.57 g/m*3 8.8 C 0 km/h
1374 24-03-2019 19:50:00 8.8 C 5.74 g/m*3 8.8 C 0 km/h
1375 24-03-2019 19:55:00 8.6 C 5.67 g/m*3 8.6 C 0 km/h
Sensor: Nr:Datum:Temp:Abs-Feuchte:Windchill:Wind:
Aussen-T/F 1376 24-03-2019 20:00:00 8.2 C 5.61 g/m*3 8.2 C 3.2 km/h
1377 24-03-2019 20:05:00 7.9 C 5.67 g/m*3 6.94 C 6.4 km/h
1378 24-03-2019 20:10:00 7.7 C 5.59 g/m*3 7.7 C 3.2 km/h
1379 24-03-2019 20:15:00 7.5 C 5.52 g/m*3 7.5 C 4.8 km/h
1380 24-03-2019 20:20:00 7.3 C 5.53 g/m*3 7.3 C 4.8 km/h
1381 24-03-2019 20:25:00 7.2 C 5.49 g/m*3 6.13 C 6.4 km/h
1382 24-03-2019 20:30:00 7.1 C 5.54 g/m*3 7.1 C 4.8 km/h
1383 24-03-2019 20:35:00 6.9 C 5.54 g/m*3 6.9 C 4.8 km/h
1384 24-03-2019 20:40:00 6.7 C 5.55 g/m*3 6.7 C 4.8 km/h
1385 24-03-2019 20:45:00 6.7 C 5.55 g/m*3 6.7 C 1.6 km/h
1386 24-03-2019 20:50:00 6.6 C 5.51 g/m*3 6.6 C 3.2 km/h
1387 24-03-2019 20:55:00 6.4 C 5.51 g/m*3 6.4 C 4.8 km/h
1388 24-03-2019 21:00:00 6.3 C 5.48 g/m*3 6.3 C 3.2 km/h
1389 24-03-2019 21:05:00 6.2 C 5.44 g/m*3 6.2 C 1.6 km/h
1390 24-03-2019 21:10:00 6 C 5.37 g/m*3 6 C 3.2 km/h
1391 24-03-2019 21:15:00 5.8 C 5.37 g/m*3 5.8 C 0 km/h
1392 24-03-2019 21:20:00 5.8 C 5.44 g/m*3 5.8 C 0 km/h
1393 24-03-2019 21:25:00 5.6 C 5.44 g/m*3 5.6 C 0 km/h
1394 24-03-2019 21:30:00 5.4 C 5.37 g/m*3 5.4 C 0 km/h
1395 24-03-2019 21:35:00 5.4 C 5.37 g/m*3 5.4 C 3.2 km/h
1396 24-03-2019 21:40:00 5.3 C 5.41 g/m*3 5.3 C 0 km/h
1397 24-03-2019 21:45:00 5.3 C 5.41 g/m*3 5.3 C 0 km/h
1398 24-03-2019 21:50:00 5.1 C 5.34 g/m*3 5.1 C 0 km/h
1399 24-03-2019 21:55:00 4.9 C 5.27 g/m*3 4.9 C 0 km/h
1400 24-03-2019 22:00:00 4.8 C 5.3 g/m*3 4.8 C 0 km/h
Sensor: Nr:Datum:Temp:Abs-Feuchte:Windchill:Wind:
Aussen-T/F 1401 24-03-2019 22:05:00 4.7 C 5.33 g/m*3 4.7 C 3.2 km/h
1402 24-03-2019 22:10:00 4.6 C 5.29 g/m*3 4.6 C 1.6 km/h
1403 24-03-2019 22:15:00 4.5 C 5.26 g/m*3 4.5 C 0 km/h
1404 24-03-2019 22:20:00 4.3 C 5.19 g/m*3 4.3 C 0 km/h
1405 24-03-2019 22:25:00 4.2 C 5.22 g/m*3 4.2 C 1.6 km/h
1406 24-03-2019 22:30:00 4.1 C 5.18 g/m*3 4.1 C 1.6 km/h
1407 24-03-2019 22:35:00 4.1 C 5.18 g/m*3 4.1 C 0 km/h
1408 24-03-2019 22:40:00 4 C 5.15 g/m*3 4 C 0 km/h
1409 24-03-2019 22:45:00 3.9 C 5.18 g/m*3 3.9 C 0 km/h
1410 24-03-2019 22:50:00 3.8 C 5.14 g/m*3 3.8 C 0 km/h
1411 24-03-2019 22:55:00 3.8 C 5.14 g/m*3 3.8 C 1.6 km/h
1412 24-03-2019 23:00:00 3.7 C 5.11 g/m*3 3.7 C 0 km/h
1413 24-03-2019 23:05:00 3.7 C 5.17 g/m*3 3.7 C 1.6 km/h
1414 24-03-2019 23:10:00 3.7 C 5.17 g/m*3 3.7 C 1.6 km/h
1415 24-03-2019 23:15:00 3.6 C 5.14 g/m*3 3.6 C 1.6 km/h
1416 24-03-2019 23:20:00 3.6 C 5.14 g/m*3 3.6 C 3.2 km/h
1417 24-03-2019 23:25:00 3.6 C 5.14 g/m*3 3.6 C 3.2 km/h
1418 24-03-2019 23:30:00 3.6 C 5.14 g/m*3 3.6 C 4.8 km/h
1419 24-03-2019 23:35:00 3.5 C 5.1 g/m*3 3.5 C 1.6 km/h
1420 24-03-2019 23:40:00 3.4 C 5.01 g/m*3 3.4 C 3.2 km/h
1421 24-03-2019 23:45:00 3.4 C 5.07 g/m*3 3.4 C 3.2 km/h
1422 24-03-2019 23:50:00 3.5 C 5.1 g/m*3 3.5 C 4.8 km/h
1423 24-03-2019 23:55:00 3.5 C 5.04 g/m*3 3.5 C 1.6 km/h
1424 25-03-2019 00:00:00 3.6 C 5.08 g/m*3 3.6 C 1.6 km/h
1425 25-03-2019 00:05:00 3.6 C 5.08 g/m*3 3.6 C 1.6 km/h
Sensor: Nr:Datum:Temp:Abs-Feuchte:Windchill:Wind:
Aussen-T/F 1426 25-03-2019 00:10:00 3.6 C 5.08 g/m*3 3.6 C 1.6 km/h
1427 25-03-2019 00:15:00 3.5 C 5.04 g/m*3 3.5 C 3.2 km/h
1428 25-03-2019 00:20:00 3.6 C 5.08 g/m*3 3.6 C 1.6 km/h
1429 25-03-2019 00:25:00 3.6 C 5.08 g/m*3 3.6 C 4.8 km/h
1430 25-03-2019 00:30:00 3.6 C 5.08 g/m*3 3.6 C 4.8 km/h
1431 25-03-2019 00:35:00 3.4 C 5.01 g/m*3 3.4 C 1.6 km/h
1432 25-03-2019 00:40:00 3.2 C 4.94 g/m*3 3.2 C 1.6 km/h
1433 25-03-2019 00:45:00 3 C 4.93 g/m*3 3 C 3.2 km/h
1434 25-03-2019 00:50:00 2.8 C 4.93 g/m*3 2.8 C 4.8 km/h
1435 25-03-2019 00:55:00 2.7 C 4.95 g/m*3 2.7 C 4.8 km/h
1436 25-03-2019 01:00:00 2.7 C 4.95 g/m*3 2.7 C 4.8 km/h
1437 25-03-2019 01:05:00 2.6 C 4.92 g/m*3 2.6 C 0 km/h
1438 25-03-2019 01:10:00 2.4 C 4.85 g/m*3 2.4 C 0 km/h
1439 25-03-2019 01:15:00 2.2 C 4.79 g/m*3 2.2 C 0 km/h
1440 25-03-2019 01:20:00 1.9 C 4.69 g/m*3 1.9 C 0 km/h
1441 25-03-2019 01:25:00 1.8 C 4.71 g/m*3 1.8 C 0 km/h
1442 25-03-2019 01:30:00 1.7 C 4.68 g/m*3 1.7 C 0 km/h
1443 25-03-2019 01:35:00 1.6 C 4.7 g/m*3 1.6 C 0 km/h
1444 25-03-2019 01:40:00 1.4 C 4.64 g/m*3 1.4 C 0 km/h
1445 25-03-2019 01:45:00 1.4 C 4.69 g/m*3 1.4 C 0 km/h
1446 25-03-2019 01:50:00 1.4 C 4.75 g/m*3 1.4 C 0 km/h
1447 25-03-2019 01:55:00 1.4 C 4.75 g/m*3 1.4 C 1.6 km/h
1448 25-03-2019 02:00:00 1.4 C 4.75 g/m*3 1.4 C 0 km/h
1449 25-03-2019 02:05:00 1.6 C 4.81 g/m*3 1.6 C 1.6 km/h
1450 25-03-2019 02:10:00 1.6 C 4.81 g/m*3 -0.33 C 6.4 km/h
Sensor: Nr:Datum:Temp:Abs-Feuchte:Windchill:Wind:
Aussen-T/F 1451 25-03-2019 02:15:00 1.7 C 4.85 g/m*3 1.7 C 4.8 km/h
1452 25-03-2019 02:20:00 1.8 C 4.88 g/m*3 -0.1 C 6.4 km/h
1453 25-03-2019 02:25:00 1.9 C 4.91 g/m*3 1.9 C 4.8 km/h
1454 25-03-2019 02:30:00 1.9 C 4.91 g/m*3 1.9 C 4.8 km/h
1455 25-03-2019 02:35:00 2 C 4.95 g/m*3 2 C 3.2 km/h
1456 25-03-2019 02:40:00 2.1 C 4.98 g/m*3 2.1 C 3.2 km/h
1457 25-03-2019 02:45:00 2.2 C 5.01 g/m*3 -0.61 C 9.7 km/h
1458 25-03-2019 02:50:00 2.2 C 5.01 g/m*3 -0.61 C 9.7 km/h
1459 25-03-2019 02:55:00 2.3 C 4.99 g/m*3 -0.07 C 8.1 km/h
1460 25-03-2019 03:00:00 2.2 C 4.96 g/m*3 -0.99 C 11.3 km/h
1461 25-03-2019 03:05:00 2.2 C 4.96 g/m*3 -0.99 C 11.3 km/h
1462 25-03-2019 03:10:00 2.2 C 4.96 g/m*3 -0.18 C 8.1 km/h
1463 25-03-2019 03:15:00 2.3 C 4.99 g/m*3 0.47 C 6.4 km/h
1464 25-03-2019 03:20:00 2.3 C 4.99 g/m*3 -0.07 C 8.1 km/h
1465 25-03-2019 03:25:00 2.3 C 4.99 g/m*3 2.3 C 3.2 km/h
1466 25-03-2019 03:30:00 2.2 C 4.96 g/m*3 2.2 C 3.2 km/h
1467 25-03-2019 03:35:00 2.3 C 4.99 g/m*3 2.3 C 4.8 km/h
1468 25-03-2019 03:40:00 2.3 C 4.99 g/m*3 2.3 C 4.8 km/h
1469 25-03-2019 03:45:00 2.4 C 5.02 g/m*3 0.59 C 6.4 km/h
1470 25-03-2019 03:50:00 2.4 C 5.02 g/m*3 2.4 C 4.8 km/h
1471 25-03-2019 03:55:00 2.4 C 5.02 g/m*3 2.4 C 4.8 km/h
1472 25-03-2019 04:00:00 2.4 C 4.97 g/m*3 0.05 C 8.1 km/h
1473 25-03-2019 04:05:00 2.4 C 4.97 g/m*3 2.4 C 4.8 km/h
1474 25-03-2019 04:10:00 2.4 C 4.97 g/m*3 2.4 C 4.8 km/h
1475 25-03-2019 04:15:00 2.4 C 5.02 g/m*3 2.4 C 4.8 km/h
Sensor: Nr:Datum:Temp:Abs-Feuchte:Windchill:Wind:
Aussen-T/F 1476 25-03-2019 04:20:00 2.6 C 5.09 g/m*3 2.6 C 4.8 km/h
1477 25-03-2019 04:25:00 2.7 C 5.13 g/m*3 0.94 C 6.4 km/h
1478 25-03-2019 04:30:00 2.9 C 5.14 g/m*3 0.22 C 9.7 km/h
1479 25-03-2019 04:35:00 3.1 C 5.15 g/m*3 1.4 C 6.4 km/h
1480 25-03-2019 04:40:00 3.3 C 5.16 g/m*3 0.34 C 11.3 km/h
1481 25-03-2019 04:45:00 3.4 C 5.13 g/m*3 0.82 C 9.7 km/h
1482 25-03-2019 04:50:00 3.3 C 5.04 g/m*3 1.63 C 6.4 km/h
1483 25-03-2019 04:55:00 3.4 C 5.07 g/m*3 0.14 C 12.9 km/h
1484 25-03-2019 05:00:00 3.4 C 5.07 g/m*3 0.82 C 9.7 km/h
1485 25-03-2019 05:05:00 3.5 C 5.1 g/m*3 0.58 C 11.3 km/h
1486 25-03-2019 05:10:00 3.6 C 5.14 g/m*3 1.46 C 8.1 km/h
1487 25-03-2019 05:15:00 3.6 C 5.14 g/m*3 0.39 C 12.9 km/h
1488 25-03-2019 05:20:00 3.7 C 5.17 g/m*3 0.51 C 12.9 km/h
1489 25-03-2019 05:25:00 3.8 C 5.14 g/m*3 0.1 C 16.1 km/h
1490 25-03-2019 05:30:00 3.9 C 5.12 g/m*3 0.22 C 16.1 km/h
1491 25-03-2019 05:35:00 3.8 C 5.14 g/m*3 0.94 C 11.3 km/h
1492 25-03-2019 05:40:00 3.7 C 5.11 g/m*3 0.23 C 14.5 km/h
1493 25-03-2019 05:45:00 3.7 C 5.11 g/m*3 0.82 C 11.3 km/h
1494 25-03-2019 05:50:00 3.7 C 5.11 g/m*3 0.82 C 11.3 km/h
1495 25-03-2019 05:55:00 3.7 C 5.17 g/m*3 0.82 C 11.3 km/h
1496 25-03-2019 06:00:00 3.7 C 5.17 g/m*3 1.58 C 8.1 km/h
1497 25-03-2019 06:05:00 3.7 C 5.17 g/m*3 0.82 C 11.3 km/h
1498 25-03-2019 06:10:00 3.7 C 5.17 g/m*3 1.58 C 8.1 km/h
1499 25-03-2019 06:15:00 3.7 C 5.17 g/m*3 1.58 C 8.1 km/h
1500 25-03-2019 06:20:00 3.7 C 5.17 g/m*3 0.51 C 12.9 km/h
Sensor: Nr:Datum:Temp:Abs-Feuchte:Windchill:Wind:
Aussen-T/F 1501 25-03-2019 06:25:00 3.7 C 5.17 g/m*3 1.58 C 8.1 km/h
1502 25-03-2019 06:30:00 3.7 C 5.17 g/m*3 1.18 C 9.7 km/h
1503 25-03-2019 06:35:00 3.8 C 5.21 g/m*3 2.21 C 6.4 km/h
1504 25-03-2019 06:40:00 3.8 C 5.21 g/m*3 1.7 C 8.1 km/h
1505 25-03-2019 06:45:00 3.8 C 5.21 g/m*3 0.94 C 11.3 km/h
1506 25-03-2019 06:50:00 3.8 C 5.21 g/m*3 1.29 C 9.7 km/h
1507 25-03-2019 06:55:00 3.8 C 5.27 g/m*3 3.8 C 3.2 km/h
1508 25-03-2019 07:00:00 3.9 C 5.31 g/m*3 1.41 C 9.7 km/h
1509 25-03-2019 07:05:00 4 C 5.34 g/m*3 1.18 C 11.3 km/h
1510 25-03-2019 07:10:00 4.2 C 5.41 g/m*3 2.17 C 8.1 km/h
1511 25-03-2019 07:15:00 4.4 C 5.48 g/m*3 1.67 C 11.3 km/h
1512 25-03-2019 07:20:00 4.6 C 5.56 g/m*3 1.61 C 12.9 km/h
1513 25-03-2019 07:25:00 4.7 C 5.6 g/m*3 2.76 C 8.1 km/h
1514 25-03-2019 07:30:00 4.6 C 5.56 g/m*3 3.13 C 6.4 km/h
1515 25-03-2019 07:35:00 4.5 C 5.59 g/m*3 2.52 C 8.1 km/h
1516 25-03-2019 07:40:00 4.5 C 5.65 g/m*3 2.13 C 9.7 km/h
1517 25-03-2019 07:45:00 4.4 C 5.62 g/m*3 2.4 C 8.1 km/h
1518 25-03-2019 07:50:00 4.4 C 5.68 g/m*3 2.9 C 6.4 km/h
1519 25-03-2019 07:55:00 4.4 C 5.62 g/m*3 2.4 C 8.1 km/h
1520 25-03-2019 08:00:00 4.3 C 5.64 g/m*3 0.49 C 17.7 km/h
1521 25-03-2019 08:05:00 4.3 C 5.77 g/m*3 1.55 C 11.3 km/h
1522 25-03-2019 08:10:00 4.3 C 5.84 g/m*3 2.29 C 8.1 km/h
1523 25-03-2019 08:15:00 4.3 C 5.84 g/m*3 4.3 C 1.6 km/h
1524 25-03-2019 08:20:00 4.3 C 5.9 g/m*3 4.3 C 3.2 km/h
1525 25-03-2019 08:25:00 4.4 C 6.01 g/m*3 2.4 C 8.1 km/h
Sensor: Nr:Datum:Temp:Abs-Feuchte:Windchill:Wind:
Aussen-T/F 1526 25-03-2019 08:30:00 4.6 C 6.09 g/m*3 2.64 C 8.1 km/h
1527 25-03-2019 08:35:00 4.7 C 6.13 g/m*3 4.7 C 4.8 km/h
1528 25-03-2019 08:40:00 4.8 C 6.17 g/m*3 3.36 C 6.4 km/h
1529 25-03-2019 08:45:00 4.8 C 6.17 g/m*3 4.8 C 3.2 km/h
1530 25-03-2019 08:50:00 4.9 C 6.21 g/m*3 2.99 C 8.1 km/h
1531 25-03-2019 08:55:00 5.1 C 6.36 g/m*3 3.71 C 6.4 km/h
1532 25-03-2019 09:00:00 5.4 C 6.49 g/m*3 2.87 C 11.3 km/h
1533 25-03-2019 09:05:00 5.7 C 6.4 g/m*3 3.23 C 11.3 km/h
1534 25-03-2019 09:10:00 5.9 C 6.35 g/m*3 3.19 C 12.9 km/h
1535 25-03-2019 09:15:00 6 C 6.31 g/m*3 3.06 C 14.5 km/h
1536 25-03-2019 09:20:00 6.1 C 6.28 g/m*3 3.72 C 11.3 km/h
1537 25-03-2019 09:25:00 6.1 C 6.28 g/m*3 4.04 C 9.7 km/h
1538 25-03-2019 09:30:00 6.2 C 6.32 g/m*3 3.07 C 16.1 km/h
1539 25-03-2019 09:35:00 6.2 C 6.03 g/m*3 2.86 C 17.7 km/h
1540 25-03-2019 09:40:00 6.3 C 6.07 g/m*3 2.98 C 17.7 km/h
1541 25-03-2019 09:45:00 6.4 C 6.11 g/m*3 3.55 C 14.5 km/h
1542 25-03-2019 09:50:00 6.6 C 6.11 g/m*3 4.32 C 11.3 km/h
1543 25-03-2019 09:55:00 6.9 C 6.16 g/m*3 4.41 C 12.9 km/h
1544 25-03-2019 10:00:00 7.1 C 5.93 g/m*3 3.98 C 17.7 km/h
1545 25-03-2019 10:05:00 7.3 C 6.08 g/m*3 4.66 C 14.5 km/h
1546 25-03-2019 10:10:00 7.4 C 5.88 g/m*3 3.68 C 24.1 km/h
1547 25-03-2019 10:15:00 7.4 C 5.65 g/m*3 4.56 C 16.1 km/h
1548 25-03-2019 10:20:00 7.5 C 5.76 g/m*3 4.68 C 16.1 km/h
1549 25-03-2019 10:25:00 7.5 C 5.76 g/m*3 4.68 C 16.1 km/h
1550 25-03-2019 10:30:00 7.6 C 5.8 g/m*3 5.26 C 12.9 km/h
Sensor: Nr:Datum:Temp:Abs-Feuchte:Windchill:Wind:
Aussen-T/F 1551 25-03-2019 10:35:00 7.8 C 5.88 g/m*3 5.51 C 12.9 km/h
1552 25-03-2019 10:40:00 7.7 C 6.08 g/m*3 4.73 C 17.7 km/h
1553 25-03-2019 10:45:00 7.4 C 6.04 g/m*3 4.78 C 14.5 km/h
1554 25-03-2019 10:50:00 7.1 C 6.01 g/m*3 3.8 C 19.3 km/h
1555 25-03-2019 10:55:00 7.2 C 6.12 g/m*3 5.04 C 11.3 km/h
1556 25-03-2019 11:00:00 7.3 C 6 g/m*3 5.16 C 11.3 km/h
1557 25-03-2019 11:05:00 7.5 C 6 g/m*3 5.7 C 9.7 km/h
1558 25-03-2019 11:10:00 7.6 C 6.04 g/m*3 5.26 C 12.9 km/h
1559 25-03-2019 11:15:00 7.6 C 5.88 g/m*3 4.42 C 19.3 km/h
1560 25-03-2019 11:20:00 7.8 C 5.96 g/m*3 4.68 C 19.3 km/h
1561 25-03-2019 11:25:00 7.8 C 5.79 g/m*3 4.51 C 20.9 km/h
1562 25-03-2019 11:30:00 7.7 C 5.76 g/m*3 4.55 C 19.3 km/h
1563 25-03-2019 11:35:00 7.2 C 5.97 g/m*3 4.31 C 16.1 km/h
1564 25-03-2019 11:40:00 6.9 C 6.08 g/m*3 4.41 C 12.9 km/h
1565 25-03-2019 11:45:00 6.9 C 6.16 g/m*3 3.54 C 19.3 km/h
1566 25-03-2019 11:50:00 7 C 6.28 g/m*3 5.46 C 8.1 km/h
1567 25-03-2019 11:55:00 7.2 C 6.12 g/m*3 4.31 C 16.1 km/h
1568 25-03-2019 12:00:00 7.7 C 6.24 g/m*3 4.55 C 19.3 km/h
1569 25-03-2019 12:05:00 7.9 C 6.16 g/m*3 4.47 C 22.5 km/h
1570 25-03-2019 12:10:00 7.8 C 6.12 g/m*3 3.43 C 33.8 km/h
1571 25-03-2019 12:15:00 7.4 C 6.28 g/m*3 4.36 C 17.7 km/h
1572 25-03-2019 12:20:00 7.3 C 6.24 g/m*3 4.23 C 17.7 km/h
1573 25-03-2019 12:25:00 7.5 C 6.4 g/m*3 4.3 C 19.3 km/h
1574 25-03-2019 12:30:00 7.8 C 6.37 g/m*3 4.51 C 20.9 km/h
1575 25-03-2019 12:35:00 8.2 C 6.45 g/m*3 5.36 C 17.7 km/h
Sensor: Nr:Datum:Temp:Abs-Feuchte:Windchill:Wind:
Aussen-T/F 1576 25-03-2019 12:40:00 8.4 C 6.36 g/m*3 5.11 C 22.5 km/h
1577 25-03-2019 12:45:00 8.2 C 6.28 g/m*3 4.57 C 25.7 km/h
1578 25-03-2019 12:50:00 7.4 C 6.36 g/m*3 3.84 C 22.5 km/h
1579 25-03-2019 12:55:00 7.1 C 6.4 g/m*3 4.92 C 11.3 km/h
1580 25-03-2019 13:00:00 7.2 C 6.59 g/m*3 5.69 C 8.1 km/h
1581 25-03-2019 13:05:00 7.2 C 6.44 g/m*3 3.13 C 27.4 km/h
1582 25-03-2019 13:10:00 6.7 C 6.31 g/m*3 2.94 C 22.5 km/h
1583 25-03-2019 13:15:00 6.5 C 6.37 g/m*3 3.44 C 16.1 km/h
1584 25-03-2019 13:20:00 6.7 C 6.61 g/m*3 5.11 C 8.1 km/h
1585 25-03-2019 13:25:00 7.1 C 6.63 g/m*3 3.98 C 17.7 km/h
1586 25-03-2019 13:30:00 7.5 C 6.48 g/m*3 4.48 C 17.7 km/h
1587 25-03-2019 13:35:00 7.8 C 6.45 g/m*3 3.54 C 32.2 km/h
1588 25-03-2019 13:40:00 8.2 C 6.53 g/m*3 4.57 C 25.7 km/h
1589 25-03-2019 13:45:00 8.5 C 6.4 g/m*3 5.73 C 17.7 km/h
1590 25-03-2019 13:50:00 8.6 C 6.44 g/m*3 6.05 C 16.1 km/h
1591 25-03-2019 13:55:00 8.6 C 6.36 g/m*3 5.22 C 24.1 km/h
1592 25-03-2019 14:00:00 8.4 C 6.19 g/m*3 4.96 C 24.1 km/h
1593 25-03-2019 14:05:00 8.2 C 6.11 g/m*3 4.71 C 24.1 km/h
1594 25-03-2019 14:10:00 7.8 C 5.96 g/m*3 3.54 C 32.2 km/h
1595 25-03-2019 14:15:00 7.2 C 5.97 g/m*3 3 C 29 km/h
1596 25-03-2019 14:20:00 7 C 5.97 g/m*3 4.8 C 11.3 km/h
1597 25-03-2019 14:25:00 7.1 C 6.16 g/m*3 4.92 C 11.3 km/h
1598 25-03-2019 14:30:00 7.4 C 6.28 g/m*3 4.78 C 14.5 km/h
1599 25-03-2019 14:35:00 7.7 C 6.41 g/m*3 5.15 C 14.5 km/h
1600 25-03-2019 14:40:00 7.8 C 6.37 g/m*3 5.27 C 14.5 km/h
Sensor: Nr:Datum:Temp:Abs-Feuchte:Windchill:Wind:
Aussen-T/F 1601 25-03-2019 14:45:00 7.8 C 6.28 g/m*3 4.68 C 19.3 km/h
1602 25-03-2019 14:50:00 7.8 C 6.37 g/m*3 5.27 C 14.5 km/h
1603 25-03-2019 14:55:00 7.7 C 6.41 g/m*3 5.65 C 11.3 km/h
1604 25-03-2019 15:00:00 7.8 C 6.45 g/m*3 6.83 C 6.4 km/h
1605 25-03-2019 15:05:00 7.8 C 6.28 g/m*3 5.77 C 11.3 km/h
1606 25-03-2019 15:10:00 7.8 C 6.28 g/m*3 5.51 C 12.9 km/h
1607 25-03-2019 15:15:00 7.6 C 6.36 g/m*3 3.4 C 30.6 km/h
1608 25-03-2019 15:20:00 6.8 C 6.27 g/m*3 3.42 C 19.3 km/h
1609 25-03-2019 15:25:00 6.4 C 6.26 g/m*3 4.08 C 11.3 km/h
1610 25-03-2019 15:30:00 6.6 C 6.64 g/m*3 4.63 C 9.7 km/h
1611 25-03-2019 15:35:00 6.7 C 6.69 g/m*3 5.56 C 6.4 km/h
1612 25-03-2019 15:40:00 7.1 C 7.02 g/m*3 5.58 C 8.1 km/h
1613 25-03-2019 15:45:00 7.2 C 6.83 g/m*3 5.04 C 11.3 km/h
1614 25-03-2019 15:50:00 7.2 C 6.83 g/m*3 7.2 C 3.2 km/h
1615 25-03-2019 15:55:00 7.2 C 6.83 g/m*3 4.53 C 14.5 km/h
1616 25-03-2019 16:00:00 7.2 C 6.67 g/m*3 5.35 C 9.7 km/h
1617 25-03-2019 16:05:00 7.3 C 6.64 g/m*3 5.47 C 9.7 km/h
1618 25-03-2019 16:10:00 7.3 C 6.72 g/m*3 5.47 C 9.7 km/h
1619 25-03-2019 16:15:00 7.4 C 6.68 g/m*3 6.37 C 6.4 km/h
1620 25-03-2019 16:20:00 7.5 C 6.72 g/m*3 7.5 C 4.8 km/h
1621 25-03-2019 16:25:00 7.6 C 6.69 g/m*3 7.6 C 3.2 km/h
1622 25-03-2019 16:30:00 7.6 C 6.69 g/m*3 6.16 C 8.1 km/h
1623 25-03-2019 16:35:00 7.6 C 6.69 g/m*3 5.26 C 12.9 km/h
1624 25-03-2019 16:40:00 7.6 C 6.69 g/m*3 3.17 C 33.8 km/h
1625 25-03-2019 16:45:00 7.1 C 6.55 g/m*3 3.62 C 20.9 km/h
Sensor: Nr:Datum:Temp:Abs-Feuchte:Windchill:Wind:
Aussen-T/F 1626 25-03-2019 16:50:00 6.7 C 6.46 g/m*3 3.69 C 16.1 km/h
1627 25-03-2019 16:55:00 6.6 C 6.49 g/m*3 4.63 C 9.7 km/h
1628 25-03-2019 17:00:00 6.4 C 6.48 g/m*3 4.75 C 8.1 km/h
1629 25-03-2019 17:05:00 6.3 C 6.44 g/m*3 3.96 C 11.3 km/h
1630 25-03-2019 17:10:00 6.2 C 6.47 g/m*3 3.07 C 16.1 km/h
1631 25-03-2019 17:15:00 5.9 C 6.42 g/m*3 2.29 C 19.3 km/h
1632 25-03-2019 17:20:00 5.6 C 6.29 g/m*3 2.33 C 16.1 km/h
1633 25-03-2019 17:25:00 5.6 C 6.36 g/m*3 2.83 C 12.9 km/h
1634 25-03-2019 17:30:00 5.6 C 6.43 g/m*3 5.6 C 4.8 km/h
1635 25-03-2019 17:35:00 5.5 C 6.39 g/m*3 5.5 C 3.2 km/h
1636 25-03-2019 17:40:00 5.4 C 6.35 g/m*3 5.4 C 3.2 km/h
1637 25-03-2019 17:45:00 5.4 C 6.42 g/m*3 5.4 C 3.2 km/h
1638 25-03-2019 17:50:00 5.4 C 6.42 g/m*3 5.4 C 4.8 km/h
1639 25-03-2019 17:55:00 5.3 C 6.38 g/m*3 5.3 C 0 km/h
1640 25-03-2019 18:00:00 5.3 C 6.38 g/m*3 5.3 C 3.2 km/h
1641 25-03-2019 18:05:00 5.3 C 6.45 g/m*3 5.3 C 0 km/h
1642 25-03-2019 18:10:00 5.3 C 6.45 g/m*3 5.3 C 3.2 km/h
1643 25-03-2019 18:15:00 5.3 C 6.45 g/m*3 3.94 C 6.4 km/h
1644 25-03-2019 18:20:00 5.3 C 6.45 g/m*3 5.3 C 4.8 km/h
1645 25-03-2019 18:25:00 5.3 C 6.45 g/m*3 5.3 C 3.2 km/h
1646 25-03-2019 18:30:00 5.3 C 6.45 g/m*3 3.08 C 9.7 km/h
1647 25-03-2019 18:35:00 5.3 C 6.45 g/m*3 5.3 C 0 km/h
1648 25-03-2019 18:40:00 5.3 C 6.52 g/m*3 5.3 C 1.6 km/h
1649 25-03-2019 18:45:00 5.3 C 6.52 g/m*3 5.3 C 0 km/h
1650 25-03-2019 18:50:00 5.3 C 6.52 g/m*3 5.3 C 3.2 km/h
Sensor: Nr:Datum:Temp:Abs-Feuchte:Windchill:Wind:
Aussen-T/F 1651 25-03-2019 18:55:00 5.3 C 6.52 g/m*3 5.3 C 3.2 km/h
1652 25-03-2019 19:00:00 5.3 C 6.52 g/m*3 5.3 C 3.2 km/h
1653 25-03-2019 19:05:00 5.3 C 6.52 g/m*3 5.3 C 0 km/h
1654 25-03-2019 19:10:00 5.3 C 6.52 g/m*3 5.3 C 0 km/h
1655 25-03-2019 19:15:00 5.2 C 6.47 g/m*3 5.2 C 0 km/h
1656 25-03-2019 19:20:00 5.1 C 6.36 g/m*3 5.1 C 1.6 km/h
1657 25-03-2019 19:25:00 4.9 C 6.28 g/m*3 4.9 C 1.6 km/h
1658 25-03-2019 19:30:00 4.8 C 6.3 g/m*3 4.8 C 3.2 km/h
1659 25-03-2019 19:35:00 4.8 C 6.3 g/m*3 4.8 C 0 km/h
1660 25-03-2019 19:40:00 4.9 C 6.35 g/m*3 3.48 C 6.4 km/h
1661 25-03-2019 19:45:00 4.9 C 6.35 g/m*3 4.9 C 4.8 km/h
1662 25-03-2019 19:50:00 5 C 6.39 g/m*3 5 C 4.8 km/h
1663 25-03-2019 19:55:00 5 C 6.39 g/m*3 5 C 4.8 km/h
1664 25-03-2019 20:00:00 5.1 C 6.43 g/m*3 5.1 C 1.6 km/h
1665 25-03-2019 20:05:00 5.1 C 6.43 g/m*3 5.1 C 1.6 km/h
1666 25-03-2019 20:10:00 5.1 C 6.43 g/m*3 5.1 C 1.6 km/h
1667 25-03-2019 20:15:00 5.1 C 6.5 g/m*3 5.1 C 3.2 km/h
1668 25-03-2019 20:20:00 5.1 C 6.5 g/m*3 5.1 C 1.6 km/h
1669 25-03-2019 20:25:00 5.1 C 6.5 g/m*3 5.1 C 1.6 km/h
1670 25-03-2019 20:30:00 5.1 C 6.5 g/m*3 5.1 C 3.2 km/h
1671 25-03-2019 20:35:00 5 C 6.46 g/m*3 5 C 3.2 km/h
1672 25-03-2019 20:40:00 5 C 6.46 g/m*3 5 C 3.2 km/h
1673 25-03-2019 20:45:00 5.1 C 6.5 g/m*3 5.1 C 1.6 km/h
1674 25-03-2019 20:50:00 5.2 C 6.54 g/m*3 5.2 C 3.2 km/h
1675 25-03-2019 20:55:00 5.2 C 6.54 g/m*3 5.2 C 1.6 km/h
Sensor: Nr:Datum:Temp:Abs-Feuchte:Windchill:Wind:
Aussen-T/F 1676 25-03-2019 21:00:00 5.3 C 6.58 g/m*3 5.3 C 4.8 km/h
1677 25-03-2019 21:05:00 5.3 C 6.58 g/m*3 5.3 C 3.2 km/h
1678 25-03-2019 21:10:00 5.3 C 6.58 g/m*3 5.3 C 1.6 km/h
1679 25-03-2019 21:15:00 5.3 C 6.58 g/m*3 5.3 C 1.6 km/h
1680 25-03-2019 21:20:00 5.3 C 6.58 g/m*3 5.3 C 3.2 km/h
1681 25-03-2019 21:25:00 5.3 C 6.58 g/m*3 5.3 C 3.2 km/h
1682 25-03-2019 21:30:00 5.2 C 6.54 g/m*3 5.2 C 1.6 km/h
1683 25-03-2019 21:35:00 5.2 C 6.54 g/m*3 3.34 C 8.1 km/h
1684 25-03-2019 21:40:00 5.2 C 6.54 g/m*3 5.2 C 1.6 km/h
1685 25-03-2019 21:45:00 5.2 C 6.54 g/m*3 3.34 C 8.1 km/h
1686 25-03-2019 21:50:00 5.2 C 6.54 g/m*3 3.34 C 8.1 km/h
1687 25-03-2019 21:55:00 5.1 C 6.5 g/m*3 3.71 C 6.4 km/h
1688 25-03-2019 22:00:00 5.2 C 6.47 g/m*3 2.34 C 12.9 km/h
1689 25-03-2019 22:05:00 5.3 C 6.52 g/m*3 5.3 C 4.8 km/h
1690 25-03-2019 22:10:00 5.3 C 6.45 g/m*3 5.3 C 3.2 km/h
1691 25-03-2019 22:15:00 5.2 C 6.4 g/m*3 3.82 C 6.4 km/h
1692 25-03-2019 22:20:00 5.2 C 6.33 g/m*3 5.2 C 3.2 km/h
1693 25-03-2019 22:25:00 5.1 C 6.36 g/m*3 5.1 C 3.2 km/h
1694 25-03-2019 22:30:00 5.1 C 6.36 g/m*3 5.1 C 4.8 km/h
1695 25-03-2019 22:35:00 5.1 C 6.36 g/m*3 5.1 C 4.8 km/h
1696 25-03-2019 22:40:00 5.1 C 6.36 g/m*3 5.1 C 1.6 km/h
1697 25-03-2019 22:45:00 5.1 C 6.36 g/m*3 5.1 C 1.6 km/h
1698 25-03-2019 22:50:00 5.1 C 6.36 g/m*3 5.1 C 3.2 km/h
1699 25-03-2019 22:55:00 5.1 C 6.36 g/m*3 3.71 C 6.4 km/h
1700 25-03-2019 23:00:00 5 C 6.32 g/m*3 5 C 1.6 km/h
Sensor: Nr:Datum:Temp:Abs-Feuchte:Windchill:Wind:
Aussen-T/F 1701 25-03-2019 23:05:00 5 C 6.32 g/m*3 5 C 3.2 km/h
1702 25-03-2019 23:10:00 4.9 C 6.28 g/m*3 4.9 C 1.6 km/h
1703 25-03-2019 23:15:00 4.9 C 6.28 g/m*3 4.9 C 1.6 km/h
1704 25-03-2019 23:20:00 4.8 C 6.24 g/m*3 4.8 C 1.6 km/h
1705 25-03-2019 23:25:00 4.7 C 6.19 g/m*3 4.7 C 0 km/h
1706 25-03-2019 23:30:00 4.6 C 6.15 g/m*3 4.6 C 0 km/h
1707 25-03-2019 23:35:00 4.5 C 6.11 g/m*3 4.5 C 0 km/h
1708 25-03-2019 23:40:00 4.4 C 6.14 g/m*3 4.4 C 0 km/h
1709 25-03-2019 23:45:00 4.4 C 6.14 g/m*3 4.4 C 0 km/h
1710 25-03-2019 23:50:00 4.3 C 6.1 g/m*3 4.3 C 0 km/h
1711 25-03-2019 23:55:00 4.3 C 6.1 g/m*3 4.3 C 3.2 km/h

Legende:
   Min
   Max


Maximal/Minimal-Werte vom 20.03.2019 - 25.03.2019

Sensor Min Max Avg
Temp
(Aussen-T/F)
-1.3 °C
20-03-2019  06:00:00
21.3 °C
22-03-2019  17:05:00
6.66 °C
Abs-Feuchte
(Aussen-T/F)
4.12 g/m*3
20-03-2019  06:00:00
8.2 g/m*3
24-03-2019  13:50:00
5.92 g/m*3
Windchill
(Aussen-T/F)
-1.3 C
20-03-2019  06:00:00
21.3 C
22-03-2019  17:05:00
6.31 C

Die Daten stammen von einer Davis Vantage Pro 2 Wetter-Station und werden unter Linux mit der Software wview2wettercgi und aufbereitet. Alle Angaben erfolgen ohne Gewähr für ihre Vollständigkeit oder Richtigkeit.
Kontakt: Rainer Krienke krienke@uni-koblenz.de . Meine Webseiten an der Uni Koblenz oder privat.
Version: $Revision: 0.78 $